<?xml version="1.0" encoding="UTF-8" standalone="no" ?>
<gpx xmlns="http://www.topografix.com/GPX/1/1" xmlns:xsi="http://www.w3.org/2001/XMLSchema-instance" xsi:schemaLocation="http://www.topografix.com/GPX/1/1 http://www.topografix.com/GPX/1/1/gpx.xsd" version="1.1" creator="VisuGPX - https://www.visugpx.com">
  <metadata>
    <name>RSPFY-Dampierre</name>
    <desc><![CDATA[boucle de marche nordique partant du château de Dampierre passant par le bois de la Roncerie, le sentier découverte de Maincourt et retour par Champ Romery et le parc de Valence.]]></desc>
  </metadata>
  <trk>
    <name><![CDATA[2022-03-29 09:03]]></name>
    <desc><![CDATA[<p>Heure de départ: 09:03 29 mars 2022<br/>Heure d'arrivée: 11:46 29 mars 2022<br/>Distance: 11,7 km (02:43)<br/>Temps déplacement: 02:18<br/>Vitesse moyenne: 4,32 km/h<br/>Vitesse moyenne mouv.: 5,1 km/h<br/>Vitesse Max.: 9,12 km/h<br/>Altitude minimale: 82 m<br/>Altitude maximale: 167 m<br/>Vitesse de montée: 246 m/h<br/>Vitesse de descente: -248 m/h<br/>Gain d'altitude: 334 m<br/>Perte d'altitude: -322 m<br/>Temps de montée: 01:21<br/>Temps de descente: 01:17<br/></p><hr align="center" width="480" style="height: 2px; width: 517px"/>]]></desc>
    <trkseg>
      <trkpt lat="48.70601" lon="1.98663">
        <ele>99.2</ele>
        <time>2022-03-29T07:03:29Z</time>
      </trkpt>
      <trkpt lat="48.70593" lon="1.98657">
        <ele>98.6</ele>
        <time>2022-03-29T07:03:41Z</time>
      </trkpt>
      <trkpt lat="48.70584" lon="1.98653">
        <ele>97.6</ele>
        <time>2022-03-29T07:03:49Z</time>
      </trkpt>
      <trkpt lat="48.70591" lon="1.98644">
        <ele>99.1</ele>
        <time>2022-03-29T07:04:06Z</time>
      </trkpt>
      <trkpt lat="48.70601" lon="1.98642">
        <ele>100.9</ele>
        <time>2022-03-29T07:04:15Z</time>
      </trkpt>
      <trkpt lat="48.70609" lon="1.98635">
        <ele>103.2</ele>
        <time>2022-03-29T07:04:25Z</time>
      </trkpt>
      <trkpt lat="48.70616" lon="1.98626">
        <ele>105.9</ele>
        <time>2022-03-29T07:04:33Z</time>
      </trkpt>
      <trkpt lat="48.70623" lon="1.98616">
        <ele>108.5</ele>
        <time>2022-03-29T07:04:42Z</time>
      </trkpt>
      <trkpt lat="48.70631" lon="1.98609">
        <ele>110.9</ele>
        <time>2022-03-29T07:04:52Z</time>
      </trkpt>
      <trkpt lat="48.7064" lon="1.98604">
        <ele>112.9</ele>
        <time>2022-03-29T07:05:02Z</time>
      </trkpt>
      <trkpt lat="48.70646" lon="1.98593">
        <ele>114.6</ele>
        <time>2022-03-29T07:05:13Z</time>
      </trkpt>
      <trkpt lat="48.70651" lon="1.98581">
        <ele>116.1</ele>
        <time>2022-03-29T07:05:25Z</time>
      </trkpt>
      <trkpt lat="48.70654" lon="1.98568">
        <ele>117.2</ele>
        <time>2022-03-29T07:05:33Z</time>
      </trkpt>
      <trkpt lat="48.70663" lon="1.98568">
        <ele>117.9</ele>
        <time>2022-03-29T07:05:54Z</time>
      </trkpt>
      <trkpt lat="48.70671" lon="1.9856">
        <ele>118.7</ele>
        <time>2022-03-29T07:06:06Z</time>
      </trkpt>
      <trkpt lat="48.70679" lon="1.98553">
        <ele>119.2</ele>
        <time>2022-03-29T07:06:17Z</time>
      </trkpt>
      <trkpt lat="48.70683" lon="1.98539">
        <ele>120.2</ele>
        <time>2022-03-29T07:06:26Z</time>
      </trkpt>
      <trkpt lat="48.70689" lon="1.98527">
        <ele>121</ele>
        <time>2022-03-29T07:06:34Z</time>
      </trkpt>
      <trkpt lat="48.70695" lon="1.98517">
        <ele>121.7</ele>
        <time>2022-03-29T07:06:41Z</time>
      </trkpt>
      <trkpt lat="48.70705" lon="1.98515">
        <ele>121.5</ele>
        <time>2022-03-29T07:06:48Z</time>
      </trkpt>
      <trkpt lat="48.70712" lon="1.98525">
        <ele>120.6</ele>
        <time>2022-03-29T07:06:57Z</time>
      </trkpt>
      <trkpt lat="48.70716" lon="1.98539">
        <ele>119.4</ele>
        <time>2022-03-29T07:07:04Z</time>
      </trkpt>
      <trkpt lat="48.70722" lon="1.98551">
        <ele>118.3</ele>
        <time>2022-03-29T07:07:10Z</time>
      </trkpt>
      <trkpt lat="48.7073" lon="1.98561">
        <ele>117.3</ele>
        <time>2022-03-29T07:07:17Z</time>
      </trkpt>
      <trkpt lat="48.70736" lon="1.98573">
        <ele>116.3</ele>
        <time>2022-03-29T07:07:23Z</time>
      </trkpt>
      <trkpt lat="48.70742" lon="1.98583">
        <ele>115.3</ele>
        <time>2022-03-29T07:07:29Z</time>
      </trkpt>
      <trkpt lat="48.70749" lon="1.98593">
        <ele>114.3</ele>
        <time>2022-03-29T07:07:36Z</time>
      </trkpt>
      <trkpt lat="48.70756" lon="1.98605">
        <ele>113.2</ele>
        <time>2022-03-29T07:07:43Z</time>
      </trkpt>
      <trkpt lat="48.70763" lon="1.98614">
        <ele>112.5</ele>
        <time>2022-03-29T07:07:50Z</time>
      </trkpt>
      <trkpt lat="48.70771" lon="1.98622">
        <ele>112</ele>
        <time>2022-03-29T07:07:57Z</time>
      </trkpt>
      <trkpt lat="48.70777" lon="1.98633">
        <ele>111.2</ele>
        <time>2022-03-29T07:08:04Z</time>
      </trkpt>
      <trkpt lat="48.70784" lon="1.98643">
        <ele>110.5</ele>
        <time>2022-03-29T07:08:44Z</time>
      </trkpt>
      <trkpt lat="48.70793" lon="1.98645">
        <ele>110</ele>
        <time>2022-03-29T07:09:05Z</time>
      </trkpt>
      <trkpt lat="48.70802" lon="1.98643">
        <ele>109.8</ele>
        <time>2022-03-29T07:09:30Z</time>
      </trkpt>
      <trkpt lat="48.70804" lon="1.98629">
        <ele>110.1</ele>
        <time>2022-03-29T07:14:02Z</time>
      </trkpt>
      <trkpt lat="48.70809" lon="1.98617">
        <ele>109.9</ele>
        <time>2022-03-29T07:14:18Z</time>
      </trkpt>
      <trkpt lat="48.70813" lon="1.98603">
        <ele>110</ele>
        <time>2022-03-29T07:14:26Z</time>
      </trkpt>
      <trkpt lat="48.70818" lon="1.98591">
        <ele>110.3</ele>
        <time>2022-03-29T07:14:34Z</time>
      </trkpt>
      <trkpt lat="48.70823" lon="1.98578">
        <ele>110.6</ele>
        <time>2022-03-29T07:14:41Z</time>
      </trkpt>
      <trkpt lat="48.70827" lon="1.98565">
        <ele>110.9</ele>
        <time>2022-03-29T07:14:49Z</time>
      </trkpt>
      <trkpt lat="48.7083" lon="1.98552">
        <ele>111.1</ele>
        <time>2022-03-29T07:14:55Z</time>
      </trkpt>
      <trkpt lat="48.70838" lon="1.98544">
        <ele>110.8</ele>
        <time>2022-03-29T07:15:01Z</time>
      </trkpt>
      <trkpt lat="48.70847" lon="1.98541">
        <ele>110.3</ele>
        <time>2022-03-29T07:15:07Z</time>
      </trkpt>
      <trkpt lat="48.70856" lon="1.98542">
        <ele>109.8</ele>
        <time>2022-03-29T07:15:15Z</time>
      </trkpt>
      <trkpt lat="48.70865" lon="1.98541">
        <ele>109.1</ele>
        <time>2022-03-29T07:15:23Z</time>
      </trkpt>
      <trkpt lat="48.70875" lon="1.98542">
        <ele>108</ele>
        <time>2022-03-29T07:15:34Z</time>
      </trkpt>
      <trkpt lat="48.70884" lon="1.98543">
        <ele>106.9</ele>
        <time>2022-03-29T07:15:41Z</time>
      </trkpt>
      <trkpt lat="48.70894" lon="1.98546">
        <ele>105.8</ele>
        <time>2022-03-29T07:15:47Z</time>
      </trkpt>
      <trkpt lat="48.70903" lon="1.98549">
        <ele>104.7</ele>
        <time>2022-03-29T07:15:53Z</time>
      </trkpt>
      <trkpt lat="48.70913" lon="1.9855">
        <ele>103.6</ele>
        <time>2022-03-29T07:16:01Z</time>
      </trkpt>
      <trkpt lat="48.70922" lon="1.98557">
        <ele>102.6</ele>
        <time>2022-03-29T07:16:08Z</time>
      </trkpt>
      <trkpt lat="48.7093" lon="1.98562">
        <ele>101.8</ele>
        <time>2022-03-29T07:16:14Z</time>
      </trkpt>
      <trkpt lat="48.70939" lon="1.98569">
        <ele>100.9</ele>
        <time>2022-03-29T07:16:20Z</time>
      </trkpt>
      <trkpt lat="48.70947" lon="1.98577">
        <ele>100.1</ele>
        <time>2022-03-29T07:16:27Z</time>
      </trkpt>
      <trkpt lat="48.70956" lon="1.98585">
        <ele>99.6</ele>
        <time>2022-03-29T07:16:34Z</time>
      </trkpt>
      <trkpt lat="48.70964" lon="1.98589">
        <ele>99.1</ele>
        <time>2022-03-29T07:16:40Z</time>
      </trkpt>
      <trkpt lat="48.70974" lon="1.98594">
        <ele>98.5</ele>
        <time>2022-03-29T07:16:47Z</time>
      </trkpt>
      <trkpt lat="48.70984" lon="1.98597">
        <ele>97.7</ele>
        <time>2022-03-29T07:16:55Z</time>
      </trkpt>
      <trkpt lat="48.70993" lon="1.98597">
        <ele>97</ele>
        <time>2022-03-29T07:17:02Z</time>
      </trkpt>
      <trkpt lat="48.71003" lon="1.98596">
        <ele>96.4</ele>
        <time>2022-03-29T07:17:09Z</time>
      </trkpt>
      <trkpt lat="48.71013" lon="1.98594">
        <ele>96.2</ele>
        <time>2022-03-29T07:17:16Z</time>
      </trkpt>
      <trkpt lat="48.71022" lon="1.98591">
        <ele>95.9</ele>
        <time>2022-03-29T07:17:23Z</time>
      </trkpt>
      <trkpt lat="48.71032" lon="1.98587">
        <ele>95.7</ele>
        <time>2022-03-29T07:17:30Z</time>
      </trkpt>
      <trkpt lat="48.71042" lon="1.98587">
        <ele>95.4</ele>
        <time>2022-03-29T07:17:37Z</time>
      </trkpt>
      <trkpt lat="48.71051" lon="1.98586">
        <ele>95.1</ele>
        <time>2022-03-29T07:17:44Z</time>
      </trkpt>
      <trkpt lat="48.71061" lon="1.98584">
        <ele>94.8</ele>
        <time>2022-03-29T07:17:51Z</time>
      </trkpt>
      <trkpt lat="48.71071" lon="1.98583">
        <ele>94.5</ele>
        <time>2022-03-29T07:17:57Z</time>
      </trkpt>
      <trkpt lat="48.71081" lon="1.98582">
        <ele>94.1</ele>
        <time>2022-03-29T07:18:04Z</time>
      </trkpt>
      <trkpt lat="48.7109" lon="1.9858">
        <ele>93.7</ele>
        <time>2022-03-29T07:18:11Z</time>
      </trkpt>
      <trkpt lat="48.71101" lon="1.98582">
        <ele>93.4</ele>
        <time>2022-03-29T07:18:18Z</time>
      </trkpt>
      <trkpt lat="48.7111" lon="1.98582">
        <ele>93.1</ele>
        <time>2022-03-29T07:18:24Z</time>
      </trkpt>
      <trkpt lat="48.7112" lon="1.98581">
        <ele>93</ele>
        <time>2022-03-29T07:18:36Z</time>
      </trkpt>
      <trkpt lat="48.7113" lon="1.98583">
        <ele>93</ele>
        <time>2022-03-29T07:18:43Z</time>
      </trkpt>
      <trkpt lat="48.7114" lon="1.98587">
        <ele>92.8</ele>
        <time>2022-03-29T07:18:51Z</time>
      </trkpt>
      <trkpt lat="48.71149" lon="1.98587">
        <ele>92.6</ele>
        <time>2022-03-29T07:18:59Z</time>
      </trkpt>
      <trkpt lat="48.71158" lon="1.98588">
        <ele>92.3</ele>
        <time>2022-03-29T07:19:05Z</time>
      </trkpt>
      <trkpt lat="48.71167" lon="1.98589">
        <ele>92</ele>
        <time>2022-03-29T07:19:12Z</time>
      </trkpt>
      <trkpt lat="48.71176" lon="1.98593">
        <ele>92</ele>
        <time>2022-03-29T07:19:20Z</time>
      </trkpt>
      <trkpt lat="48.71186" lon="1.98592">
        <ele>92</ele>
        <time>2022-03-29T07:19:27Z</time>
      </trkpt>
      <trkpt lat="48.71195" lon="1.98589">
        <ele>92</ele>
        <time>2022-03-29T07:19:33Z</time>
      </trkpt>
      <trkpt lat="48.71204" lon="1.98587">
        <ele>92.3</ele>
        <time>2022-03-29T07:19:40Z</time>
      </trkpt>
      <trkpt lat="48.71213" lon="1.98585">
        <ele>92.7</ele>
        <time>2022-03-29T07:19:47Z</time>
      </trkpt>
      <trkpt lat="48.7122" lon="1.98574">
        <ele>92.6</ele>
        <time>2022-03-29T07:19:53Z</time>
      </trkpt>
      <trkpt lat="48.71227" lon="1.98566">
        <ele>92.7</ele>
        <time>2022-03-29T07:19:59Z</time>
      </trkpt>
      <trkpt lat="48.71235" lon="1.98558">
        <ele>93</ele>
        <time>2022-03-29T07:20:05Z</time>
      </trkpt>
      <trkpt lat="48.71244" lon="1.9855">
        <ele>93.6</ele>
        <time>2022-03-29T07:20:12Z</time>
      </trkpt>
      <trkpt lat="48.71252" lon="1.98539">
        <ele>94.1</ele>
        <time>2022-03-29T07:20:19Z</time>
      </trkpt>
      <trkpt lat="48.7126" lon="1.98533">
        <ele>94.6</ele>
        <time>2022-03-29T07:20:25Z</time>
      </trkpt>
      <trkpt lat="48.71269" lon="1.9853">
        <ele>94.8</ele>
        <time>2022-03-29T07:20:33Z</time>
      </trkpt>
      <trkpt lat="48.71278" lon="1.98531">
        <ele>95.4</ele>
        <time>2022-03-29T07:20:42Z</time>
      </trkpt>
      <trkpt lat="48.71287" lon="1.98538">
        <ele>97.3</ele>
        <time>2022-03-29T07:20:52Z</time>
      </trkpt>
      <trkpt lat="48.71295" lon="1.9853">
        <ele>97.1</ele>
        <time>2022-03-29T07:21:00Z</time>
      </trkpt>
      <trkpt lat="48.71303" lon="1.98527">
        <ele>97.7</ele>
        <time>2022-03-29T07:21:10Z</time>
      </trkpt>
      <trkpt lat="48.71313" lon="1.98527">
        <ele>98.2</ele>
        <time>2022-03-29T07:21:19Z</time>
      </trkpt>
      <trkpt lat="48.71322" lon="1.98527">
        <ele>98.6</ele>
        <time>2022-03-29T07:21:30Z</time>
      </trkpt>
      <trkpt lat="48.71331" lon="1.98523">
        <ele>98.9</ele>
        <time>2022-03-29T07:21:38Z</time>
      </trkpt>
      <trkpt lat="48.71341" lon="1.98521">
        <ele>100.1</ele>
        <time>2022-03-29T07:21:45Z</time>
      </trkpt>
      <trkpt lat="48.7135" lon="1.98523">
        <ele>101.2</ele>
        <time>2022-03-29T07:21:51Z</time>
      </trkpt>
      <trkpt lat="48.71359" lon="1.98529">
        <ele>101.7</ele>
        <time>2022-03-29T07:22:00Z</time>
      </trkpt>
      <trkpt lat="48.71368" lon="1.98532">
        <ele>103.7</ele>
        <time>2022-03-29T07:22:06Z</time>
      </trkpt>
      <trkpt lat="48.71377" lon="1.98536">
        <ele>105.7</ele>
        <time>2022-03-29T07:22:14Z</time>
      </trkpt>
      <trkpt lat="48.71384" lon="1.98547">
        <ele>106.1</ele>
        <time>2022-03-29T07:22:22Z</time>
      </trkpt>
      <trkpt lat="48.71391" lon="1.98559">
        <ele>106.3</ele>
        <time>2022-03-29T07:22:30Z</time>
      </trkpt>
      <trkpt lat="48.71399" lon="1.98567">
        <ele>107.7</ele>
        <time>2022-03-29T07:22:37Z</time>
      </trkpt>
      <trkpt lat="48.71407" lon="1.98575">
        <ele>108.6</ele>
        <time>2022-03-29T07:22:45Z</time>
      </trkpt>
      <trkpt lat="48.71415" lon="1.98583">
        <ele>108.8</ele>
        <time>2022-03-29T07:22:55Z</time>
      </trkpt>
      <trkpt lat="48.71424" lon="1.9859">
        <ele>109.9</ele>
        <time>2022-03-29T07:23:02Z</time>
      </trkpt>
      <trkpt lat="48.71433" lon="1.98594">
        <ele>110.8</ele>
        <time>2022-03-29T07:23:08Z</time>
      </trkpt>
      <trkpt lat="48.71441" lon="1.98589">
        <ele>112.6</ele>
        <time>2022-03-29T07:23:21Z</time>
      </trkpt>
      <trkpt lat="48.7145" lon="1.98588">
        <ele>113.7</ele>
        <time>2022-03-29T07:23:27Z</time>
      </trkpt>
      <trkpt lat="48.71461" lon="1.9859">
        <ele>114</ele>
        <time>2022-03-29T07:23:33Z</time>
      </trkpt>
      <trkpt lat="48.7147" lon="1.98592">
        <ele>114.5</ele>
        <time>2022-03-29T07:23:39Z</time>
      </trkpt>
      <trkpt lat="48.7148" lon="1.98594">
        <ele>114.9</ele>
        <time>2022-03-29T07:23:46Z</time>
      </trkpt>
      <trkpt lat="48.71489" lon="1.98595">
        <ele>115.3</ele>
        <time>2022-03-29T07:23:52Z</time>
      </trkpt>
      <trkpt lat="48.71498" lon="1.98592">
        <ele>115.6</ele>
        <time>2022-03-29T07:23:59Z</time>
      </trkpt>
      <trkpt lat="48.71507" lon="1.98587">
        <ele>115.9</ele>
        <time>2022-03-29T07:24:07Z</time>
      </trkpt>
      <trkpt lat="48.71516" lon="1.98579">
        <ele>116.3</ele>
        <time>2022-03-29T07:24:13Z</time>
      </trkpt>
      <trkpt lat="48.71524" lon="1.9857">
        <ele>116.9</ele>
        <time>2022-03-29T07:24:20Z</time>
      </trkpt>
      <trkpt lat="48.71533" lon="1.98566">
        <ele>117.7</ele>
        <time>2022-03-29T07:24:27Z</time>
      </trkpt>
      <trkpt lat="48.71542" lon="1.98558">
        <ele>118.5</ele>
        <time>2022-03-29T07:24:35Z</time>
      </trkpt>
      <trkpt lat="48.7155" lon="1.98551">
        <ele>119.7</ele>
        <time>2022-03-29T07:24:43Z</time>
      </trkpt>
      <trkpt lat="48.71556" lon="1.98541">
        <ele>121.2</ele>
        <time>2022-03-29T07:24:52Z</time>
      </trkpt>
      <trkpt lat="48.71564" lon="1.98533">
        <ele>122.7</ele>
        <time>2022-03-29T07:24:59Z</time>
      </trkpt>
      <trkpt lat="48.71574" lon="1.98528">
        <ele>124</ele>
        <time>2022-03-29T07:25:07Z</time>
      </trkpt>
      <trkpt lat="48.71583" lon="1.98526">
        <ele>125</ele>
        <time>2022-03-29T07:25:14Z</time>
      </trkpt>
      <trkpt lat="48.71592" lon="1.98521">
        <ele>127.2</ele>
        <time>2022-03-29T07:25:23Z</time>
      </trkpt>
      <trkpt lat="48.716" lon="1.98514">
        <ele>128.6</ele>
        <time>2022-03-29T07:25:32Z</time>
      </trkpt>
      <trkpt lat="48.71608" lon="1.98505">
        <ele>129.1</ele>
        <time>2022-03-29T07:25:39Z</time>
      </trkpt>
      <trkpt lat="48.71616" lon="1.98497">
        <ele>129.8</ele>
        <time>2022-03-29T07:25:47Z</time>
      </trkpt>
      <trkpt lat="48.71626" lon="1.98492">
        <ele>131.6</ele>
        <time>2022-03-29T07:25:57Z</time>
      </trkpt>
      <trkpt lat="48.71635" lon="1.98486">
        <ele>133.2</ele>
        <time>2022-03-29T07:26:06Z</time>
      </trkpt>
      <trkpt lat="48.71643" lon="1.98479">
        <ele>134.4</ele>
        <time>2022-03-29T07:26:17Z</time>
      </trkpt>
      <trkpt lat="48.71651" lon="1.98489">
        <ele>136.8</ele>
        <time>2022-03-29T07:26:28Z</time>
      </trkpt>
      <trkpt lat="48.71653" lon="1.98505">
        <ele>139.1</ele>
        <time>2022-03-29T07:26:38Z</time>
      </trkpt>
      <trkpt lat="48.71652" lon="1.98518">
        <ele>140.4</ele>
        <time>2022-03-29T07:26:46Z</time>
      </trkpt>
      <trkpt lat="48.71648" lon="1.98531">
        <ele>141</ele>
        <time>2022-03-29T07:26:53Z</time>
      </trkpt>
      <trkpt lat="48.71645" lon="1.98545">
        <ele>141.9</ele>
        <time>2022-03-29T07:27:01Z</time>
      </trkpt>
      <trkpt lat="48.71647" lon="1.9856">
        <ele>144.3</ele>
        <time>2022-03-29T07:27:10Z</time>
      </trkpt>
      <trkpt lat="48.71648" lon="1.98574">
        <ele>146</ele>
        <time>2022-03-29T07:27:17Z</time>
      </trkpt>
      <trkpt lat="48.71649" lon="1.98589">
        <ele>147.3</ele>
        <time>2022-03-29T07:27:25Z</time>
      </trkpt>
      <trkpt lat="48.71651" lon="1.98605">
        <ele>149.3</ele>
        <time>2022-03-29T07:27:34Z</time>
      </trkpt>
      <trkpt lat="48.71652" lon="1.98618">
        <ele>150.7</ele>
        <time>2022-03-29T07:27:42Z</time>
      </trkpt>
      <trkpt lat="48.71649" lon="1.98631">
        <ele>150.6</ele>
        <time>2022-03-29T07:27:52Z</time>
      </trkpt>
      <trkpt lat="48.71646" lon="1.98645">
        <ele>151</ele>
        <time>2022-03-29T07:28:03Z</time>
      </trkpt>
      <trkpt lat="48.71642" lon="1.98658">
        <ele>151.1</ele>
        <time>2022-03-29T07:28:13Z</time>
      </trkpt>
      <trkpt lat="48.7164" lon="1.98671">
        <ele>151.7</ele>
        <time>2022-03-29T07:28:21Z</time>
      </trkpt>
      <trkpt lat="48.71637" lon="1.98686">
        <ele>152.3</ele>
        <time>2022-03-29T07:28:30Z</time>
      </trkpt>
      <trkpt lat="48.71632" lon="1.98698">
        <ele>152.2</ele>
        <time>2022-03-29T07:28:37Z</time>
      </trkpt>
      <trkpt lat="48.71628" lon="1.98712">
        <ele>152.8</ele>
        <time>2022-03-29T07:28:45Z</time>
      </trkpt>
      <trkpt lat="48.71625" lon="1.98726">
        <ele>154</ele>
        <time>2022-03-29T07:28:53Z</time>
      </trkpt>
      <trkpt lat="48.71622" lon="1.98739">
        <ele>154.8</ele>
        <time>2022-03-29T07:29:01Z</time>
      </trkpt>
      <trkpt lat="48.7162" lon="1.98753">
        <ele>156.2</ele>
        <time>2022-03-29T07:29:10Z</time>
      </trkpt>
      <trkpt lat="48.71619" lon="1.98767">
        <ele>157.7</ele>
        <time>2022-03-29T07:29:18Z</time>
      </trkpt>
      <trkpt lat="48.71619" lon="1.98782">
        <ele>159.1</ele>
        <time>2022-03-29T07:29:26Z</time>
      </trkpt>
      <trkpt lat="48.71619" lon="1.98796">
        <ele>160.8</ele>
        <time>2022-03-29T07:29:33Z</time>
      </trkpt>
      <trkpt lat="48.71618" lon="1.98811">
        <ele>162.1</ele>
        <time>2022-03-29T07:29:41Z</time>
      </trkpt>
      <trkpt lat="48.71617" lon="1.98825">
        <ele>162.9</ele>
        <time>2022-03-29T07:29:50Z</time>
      </trkpt>
      <trkpt lat="48.71619" lon="1.98839">
        <ele>163.7</ele>
        <time>2022-03-29T07:29:58Z</time>
      </trkpt>
      <trkpt lat="48.7162" lon="1.98853">
        <ele>164.1</ele>
        <time>2022-03-29T07:30:07Z</time>
      </trkpt>
      <trkpt lat="48.71621" lon="1.98868">
        <ele>164.5</ele>
        <time>2022-03-29T07:30:17Z</time>
      </trkpt>
      <trkpt lat="48.71624" lon="1.98881">
        <ele>164.9</ele>
        <time>2022-03-29T07:30:33Z</time>
      </trkpt>
      <trkpt lat="48.71628" lon="1.98868">
        <ele>164.7</ele>
        <time>2022-03-29T07:33:19Z</time>
      </trkpt>
      <trkpt lat="48.71631" lon="1.98855">
        <ele>164.7</ele>
        <time>2022-03-29T07:33:28Z</time>
      </trkpt>
      <trkpt lat="48.71635" lon="1.98841">
        <ele>164.8</ele>
        <time>2022-03-29T07:33:37Z</time>
      </trkpt>
      <trkpt lat="48.71639" lon="1.98827">
        <ele>164.7</ele>
        <time>2022-03-29T07:33:45Z</time>
      </trkpt>
      <trkpt lat="48.71643" lon="1.98815">
        <ele>164.3</ele>
        <time>2022-03-29T07:33:53Z</time>
      </trkpt>
      <trkpt lat="48.71648" lon="1.98803">
        <ele>163.9</ele>
        <time>2022-03-29T07:34:00Z</time>
      </trkpt>
      <trkpt lat="48.71654" lon="1.9879">
        <ele>163.8</ele>
        <time>2022-03-29T07:34:08Z</time>
      </trkpt>
      <trkpt lat="48.7166" lon="1.98779">
        <ele>163.8</ele>
        <time>2022-03-29T07:34:15Z</time>
      </trkpt>
      <trkpt lat="48.71665" lon="1.98768">
        <ele>163.5</ele>
        <time>2022-03-29T07:34:22Z</time>
      </trkpt>
      <trkpt lat="48.71671" lon="1.98756">
        <ele>163.3</ele>
        <time>2022-03-29T07:34:29Z</time>
      </trkpt>
      <trkpt lat="48.71676" lon="1.98744">
        <ele>163.1</ele>
        <time>2022-03-29T07:34:36Z</time>
      </trkpt>
      <trkpt lat="48.71682" lon="1.98735">
        <ele>163.1</ele>
        <time>2022-03-29T07:34:43Z</time>
      </trkpt>
      <trkpt lat="48.71688" lon="1.98723">
        <ele>163.4</ele>
        <time>2022-03-29T07:34:51Z</time>
      </trkpt>
      <trkpt lat="48.71695" lon="1.98712">
        <ele>164</ele>
        <time>2022-03-29T07:34:59Z</time>
      </trkpt>
      <trkpt lat="48.71701" lon="1.98701">
        <ele>164</ele>
        <time>2022-03-29T07:35:06Z</time>
      </trkpt>
      <trkpt lat="48.71708" lon="1.9869">
        <ele>163.9</ele>
        <time>2022-03-29T07:35:14Z</time>
      </trkpt>
      <trkpt lat="48.71713" lon="1.98678">
        <ele>163.8</ele>
        <time>2022-03-29T07:35:21Z</time>
      </trkpt>
      <trkpt lat="48.71719" lon="1.98668">
        <ele>163.9</ele>
        <time>2022-03-29T07:35:28Z</time>
      </trkpt>
      <trkpt lat="48.71726" lon="1.98657">
        <ele>163.6</ele>
        <time>2022-03-29T07:35:35Z</time>
      </trkpt>
      <trkpt lat="48.71732" lon="1.98645">
        <ele>163.1</ele>
        <time>2022-03-29T07:35:42Z</time>
      </trkpt>
      <trkpt lat="48.71738" lon="1.98633">
        <ele>163</ele>
        <time>2022-03-29T07:35:49Z</time>
      </trkpt>
      <trkpt lat="48.71743" lon="1.98621">
        <ele>163</ele>
        <time>2022-03-29T07:35:55Z</time>
      </trkpt>
      <trkpt lat="48.71748" lon="1.98609">
        <ele>162.9</ele>
        <time>2022-03-29T07:36:02Z</time>
      </trkpt>
      <trkpt lat="48.71756" lon="1.986">
        <ele>162.6</ele>
        <time>2022-03-29T07:36:09Z</time>
      </trkpt>
      <trkpt lat="48.71762" lon="1.9859">
        <ele>162.2</ele>
        <time>2022-03-29T07:36:16Z</time>
      </trkpt>
      <trkpt lat="48.71769" lon="1.98579">
        <ele>161.9</ele>
        <time>2022-03-29T07:36:23Z</time>
      </trkpt>
      <trkpt lat="48.71775" lon="1.98569">
        <ele>161.9</ele>
        <time>2022-03-29T07:36:29Z</time>
      </trkpt>
      <trkpt lat="48.71781" lon="1.98557">
        <ele>162</ele>
        <time>2022-03-29T07:36:36Z</time>
      </trkpt>
      <trkpt lat="48.71787" lon="1.98546">
        <ele>161.4</ele>
        <time>2022-03-29T07:36:43Z</time>
      </trkpt>
      <trkpt lat="48.71794" lon="1.98536">
        <ele>161.5</ele>
        <time>2022-03-29T07:36:51Z</time>
      </trkpt>
      <trkpt lat="48.718" lon="1.98525">
        <ele>162.1</ele>
        <time>2022-03-29T07:36:59Z</time>
      </trkpt>
      <trkpt lat="48.71804" lon="1.98513">
        <ele>162.3</ele>
        <time>2022-03-29T07:37:09Z</time>
      </trkpt>
      <trkpt lat="48.7181" lon="1.98502">
        <ele>162.4</ele>
        <time>2022-03-29T07:37:18Z</time>
      </trkpt>
      <trkpt lat="48.71816" lon="1.98489">
        <ele>162.8</ele>
        <time>2022-03-29T07:37:26Z</time>
      </trkpt>
      <trkpt lat="48.7182" lon="1.98474">
        <ele>163.1</ele>
        <time>2022-03-29T07:37:32Z</time>
      </trkpt>
      <trkpt lat="48.71825" lon="1.9846">
        <ele>163.1</ele>
        <time>2022-03-29T07:37:37Z</time>
      </trkpt>
      <trkpt lat="48.71831" lon="1.9845">
        <ele>163.1</ele>
        <time>2022-03-29T07:37:44Z</time>
      </trkpt>
      <trkpt lat="48.71838" lon="1.98439">
        <ele>163.1</ele>
        <time>2022-03-29T07:37:53Z</time>
      </trkpt>
      <trkpt lat="48.71845" lon="1.98429">
        <ele>163.2</ele>
        <time>2022-03-29T07:38:00Z</time>
      </trkpt>
      <trkpt lat="48.71852" lon="1.98419">
        <ele>163.1</ele>
        <time>2022-03-29T07:38:08Z</time>
      </trkpt>
      <trkpt lat="48.7186" lon="1.98409">
        <ele>163</ele>
        <time>2022-03-29T07:38:16Z</time>
      </trkpt>
      <trkpt lat="48.71868" lon="1.98401">
        <ele>163</ele>
        <time>2022-03-29T07:38:23Z</time>
      </trkpt>
      <trkpt lat="48.71875" lon="1.98391">
        <ele>163</ele>
        <time>2022-03-29T07:38:29Z</time>
      </trkpt>
      <trkpt lat="48.71881" lon="1.98381">
        <ele>162.9</ele>
        <time>2022-03-29T07:38:35Z</time>
      </trkpt>
      <trkpt lat="48.71887" lon="1.98369">
        <ele>163</ele>
        <time>2022-03-29T07:38:42Z</time>
      </trkpt>
      <trkpt lat="48.71893" lon="1.98356">
        <ele>163</ele>
        <time>2022-03-29T07:38:49Z</time>
      </trkpt>
      <trkpt lat="48.71898" lon="1.98344">
        <ele>163</ele>
        <time>2022-03-29T07:38:56Z</time>
      </trkpt>
      <trkpt lat="48.71904" lon="1.98332">
        <ele>163</ele>
        <time>2022-03-29T07:39:04Z</time>
      </trkpt>
      <trkpt lat="48.71908" lon="1.9832">
        <ele>163</ele>
        <time>2022-03-29T07:39:12Z</time>
      </trkpt>
      <trkpt lat="48.71914" lon="1.98308">
        <ele>163</ele>
        <time>2022-03-29T07:39:19Z</time>
      </trkpt>
      <trkpt lat="48.7192" lon="1.98296">
        <ele>163</ele>
        <time>2022-03-29T07:39:25Z</time>
      </trkpt>
      <trkpt lat="48.71926" lon="1.98284">
        <ele>163</ele>
        <time>2022-03-29T07:39:32Z</time>
      </trkpt>
      <trkpt lat="48.71932" lon="1.98271">
        <ele>163.1</ele>
        <time>2022-03-29T07:39:39Z</time>
      </trkpt>
      <trkpt lat="48.71938" lon="1.9826">
        <ele>163.5</ele>
        <time>2022-03-29T07:39:45Z</time>
      </trkpt>
      <trkpt lat="48.71944" lon="1.98248">
        <ele>164</ele>
        <time>2022-03-29T07:39:52Z</time>
      </trkpt>
      <trkpt lat="48.71951" lon="1.98238">
        <ele>164</ele>
        <time>2022-03-29T07:39:58Z</time>
      </trkpt>
      <trkpt lat="48.71957" lon="1.98227">
        <ele>164</ele>
        <time>2022-03-29T07:40:04Z</time>
      </trkpt>
      <trkpt lat="48.71963" lon="1.98218">
        <ele>164</ele>
        <time>2022-03-29T07:40:10Z</time>
      </trkpt>
      <trkpt lat="48.7197" lon="1.98208">
        <ele>164</ele>
        <time>2022-03-29T07:40:17Z</time>
      </trkpt>
      <trkpt lat="48.71977" lon="1.98197">
        <ele>164</ele>
        <time>2022-03-29T07:40:24Z</time>
      </trkpt>
      <trkpt lat="48.71981" lon="1.98184">
        <ele>164</ele>
        <time>2022-03-29T07:40:30Z</time>
      </trkpt>
      <trkpt lat="48.71984" lon="1.9817">
        <ele>164</ele>
        <time>2022-03-29T07:40:37Z</time>
      </trkpt>
      <trkpt lat="48.71986" lon="1.98156">
        <ele>164</ele>
        <time>2022-03-29T07:40:44Z</time>
      </trkpt>
      <trkpt lat="48.71988" lon="1.98141">
        <ele>164</ele>
        <time>2022-03-29T07:40:52Z</time>
      </trkpt>
      <trkpt lat="48.71991" lon="1.98127">
        <ele>164</ele>
        <time>2022-03-29T07:41:01Z</time>
      </trkpt>
      <trkpt lat="48.71995" lon="1.98113">
        <ele>164</ele>
        <time>2022-03-29T07:41:10Z</time>
      </trkpt>
      <trkpt lat="48.72004" lon="1.9811">
        <ele>164</ele>
        <time>2022-03-29T07:41:31Z</time>
      </trkpt>
      <trkpt lat="48.72014" lon="1.98113">
        <ele>164</ele>
        <time>2022-03-29T07:41:40Z</time>
      </trkpt>
      <trkpt lat="48.72023" lon="1.98115">
        <ele>164</ele>
        <time>2022-03-29T07:41:48Z</time>
      </trkpt>
      <trkpt lat="48.72032" lon="1.98116">
        <ele>164</ele>
        <time>2022-03-29T07:42:00Z</time>
      </trkpt>
      <trkpt lat="48.72042" lon="1.98122">
        <ele>164</ele>
        <time>2022-03-29T07:42:10Z</time>
      </trkpt>
      <trkpt lat="48.72052" lon="1.98123">
        <ele>164</ele>
        <time>2022-03-29T07:42:15Z</time>
      </trkpt>
      <trkpt lat="48.72062" lon="1.98125">
        <ele>164.1</ele>
        <time>2022-03-29T07:42:23Z</time>
      </trkpt>
      <trkpt lat="48.72072" lon="1.98124">
        <ele>164.3</ele>
        <time>2022-03-29T07:42:32Z</time>
      </trkpt>
      <trkpt lat="48.72081" lon="1.98127">
        <ele>164.5</ele>
        <time>2022-03-29T07:42:38Z</time>
      </trkpt>
      <trkpt lat="48.7209" lon="1.98132">
        <ele>164.7</ele>
        <time>2022-03-29T07:42:45Z</time>
      </trkpt>
      <trkpt lat="48.721" lon="1.98137">
        <ele>164.9</ele>
        <time>2022-03-29T07:42:53Z</time>
      </trkpt>
      <trkpt lat="48.72109" lon="1.98138">
        <ele>165</ele>
        <time>2022-03-29T07:42:59Z</time>
      </trkpt>
      <trkpt lat="48.72118" lon="1.98142">
        <ele>164.8</ele>
        <time>2022-03-29T07:43:06Z</time>
      </trkpt>
      <trkpt lat="48.72127" lon="1.98145">
        <ele>164.5</ele>
        <time>2022-03-29T07:43:12Z</time>
      </trkpt>
      <trkpt lat="48.72137" lon="1.98145">
        <ele>164.3</ele>
        <time>2022-03-29T07:43:18Z</time>
      </trkpt>
      <trkpt lat="48.72147" lon="1.98147">
        <ele>164.3</ele>
        <time>2022-03-29T07:43:25Z</time>
      </trkpt>
      <trkpt lat="48.72157" lon="1.98149">
        <ele>164.4</ele>
        <time>2022-03-29T07:43:31Z</time>
      </trkpt>
      <trkpt lat="48.72167" lon="1.98151">
        <ele>164.4</ele>
        <time>2022-03-29T07:43:38Z</time>
      </trkpt>
      <trkpt lat="48.72177" lon="1.98154">
        <ele>164.3</ele>
        <time>2022-03-29T07:43:45Z</time>
      </trkpt>
      <trkpt lat="48.72187" lon="1.98157">
        <ele>164.2</ele>
        <time>2022-03-29T07:43:51Z</time>
      </trkpt>
      <trkpt lat="48.72196" lon="1.98161">
        <ele>164</ele>
        <time>2022-03-29T07:43:59Z</time>
      </trkpt>
      <trkpt lat="48.72206" lon="1.98163">
        <ele>164</ele>
        <time>2022-03-29T07:44:05Z</time>
      </trkpt>
      <trkpt lat="48.72215" lon="1.98165">
        <ele>164</ele>
        <time>2022-03-29T07:44:11Z</time>
      </trkpt>
      <trkpt lat="48.72225" lon="1.98166">
        <ele>164</ele>
        <time>2022-03-29T07:44:18Z</time>
      </trkpt>
      <trkpt lat="48.72234" lon="1.98168">
        <ele>164</ele>
        <time>2022-03-29T07:44:24Z</time>
      </trkpt>
      <trkpt lat="48.72244" lon="1.98171">
        <ele>164</ele>
        <time>2022-03-29T07:44:32Z</time>
      </trkpt>
      <trkpt lat="48.72254" lon="1.98173">
        <ele>163.9</ele>
        <time>2022-03-29T07:44:39Z</time>
      </trkpt>
      <trkpt lat="48.72264" lon="1.98177">
        <ele>163.7</ele>
        <time>2022-03-29T07:44:46Z</time>
      </trkpt>
      <trkpt lat="48.72273" lon="1.98178">
        <ele>163.5</ele>
        <time>2022-03-29T07:44:52Z</time>
      </trkpt>
      <trkpt lat="48.72283" lon="1.98178">
        <ele>163.3</ele>
        <time>2022-03-29T07:44:58Z</time>
      </trkpt>
      <trkpt lat="48.72293" lon="1.9818">
        <ele>163.2</ele>
        <time>2022-03-29T07:45:06Z</time>
      </trkpt>
      <trkpt lat="48.72303" lon="1.98182">
        <ele>163.1</ele>
        <time>2022-03-29T07:45:13Z</time>
      </trkpt>
      <trkpt lat="48.72313" lon="1.98182">
        <ele>163</ele>
        <time>2022-03-29T07:45:20Z</time>
      </trkpt>
      <trkpt lat="48.72322" lon="1.98185">
        <ele>163</ele>
        <time>2022-03-29T07:45:27Z</time>
      </trkpt>
      <trkpt lat="48.72332" lon="1.98187">
        <ele>163</ele>
        <time>2022-03-29T07:45:34Z</time>
      </trkpt>
      <trkpt lat="48.72342" lon="1.98188">
        <ele>162.7</ele>
        <time>2022-03-29T07:45:41Z</time>
      </trkpt>
      <trkpt lat="48.72352" lon="1.98189">
        <ele>162.3</ele>
        <time>2022-03-29T07:45:48Z</time>
      </trkpt>
      <trkpt lat="48.72361" lon="1.9819">
        <ele>162</ele>
        <time>2022-03-29T07:45:54Z</time>
      </trkpt>
      <trkpt lat="48.7237" lon="1.98192">
        <ele>161.3</ele>
        <time>2022-03-29T07:46:00Z</time>
      </trkpt>
      <trkpt lat="48.7238" lon="1.98192">
        <ele>160.6</ele>
        <time>2022-03-29T07:46:07Z</time>
      </trkpt>
      <trkpt lat="48.7239" lon="1.98194">
        <ele>159.9</ele>
        <time>2022-03-29T07:46:14Z</time>
      </trkpt>
      <trkpt lat="48.72401" lon="1.98196">
        <ele>159.2</ele>
        <time>2022-03-29T07:46:21Z</time>
      </trkpt>
      <trkpt lat="48.72407" lon="1.98187">
        <ele>158.2</ele>
        <time>2022-03-29T07:47:38Z</time>
      </trkpt>
      <trkpt lat="48.72402" lon="1.98175">
        <ele>158</ele>
        <time>2022-03-29T07:48:02Z</time>
      </trkpt>
      <trkpt lat="48.72395" lon="1.98163">
        <ele>158.2</ele>
        <time>2022-03-29T07:48:10Z</time>
      </trkpt>
      <trkpt lat="48.72389" lon="1.98152">
        <ele>158.5</ele>
        <time>2022-03-29T07:48:17Z</time>
      </trkpt>
      <trkpt lat="48.72382" lon="1.98142">
        <ele>158.9</ele>
        <time>2022-03-29T07:48:24Z</time>
      </trkpt>
      <trkpt lat="48.72373" lon="1.98132">
        <ele>159.6</ele>
        <time>2022-03-29T07:48:32Z</time>
      </trkpt>
      <trkpt lat="48.72365" lon="1.98123">
        <ele>160.5</ele>
        <time>2022-03-29T07:48:39Z</time>
      </trkpt>
      <trkpt lat="48.72359" lon="1.98113">
        <ele>161.1</ele>
        <time>2022-03-29T07:48:45Z</time>
      </trkpt>
      <trkpt lat="48.72352" lon="1.98102">
        <ele>161.1</ele>
        <time>2022-03-29T07:48:52Z</time>
      </trkpt>
      <trkpt lat="48.72347" lon="1.9809">
        <ele>161.1</ele>
        <time>2022-03-29T07:48:58Z</time>
      </trkpt>
      <trkpt lat="48.72344" lon="1.98077">
        <ele>161.1</ele>
        <time>2022-03-29T07:49:05Z</time>
      </trkpt>
      <trkpt lat="48.72341" lon="1.98063">
        <ele>161.1</ele>
        <time>2022-03-29T07:49:13Z</time>
      </trkpt>
      <trkpt lat="48.72337" lon="1.98048">
        <ele>161.3</ele>
        <time>2022-03-29T07:49:19Z</time>
      </trkpt>
      <trkpt lat="48.72334" lon="1.98033">
        <ele>161.1</ele>
        <time>2022-03-29T07:49:28Z</time>
      </trkpt>
      <trkpt lat="48.72332" lon="1.98019">
        <ele>160.8</ele>
        <time>2022-03-29T07:49:35Z</time>
      </trkpt>
      <trkpt lat="48.72328" lon="1.98004">
        <ele>160.5</ele>
        <time>2022-03-29T07:49:43Z</time>
      </trkpt>
      <trkpt lat="48.72327" lon="1.97989">
        <ele>159.8</ele>
        <time>2022-03-29T07:49:50Z</time>
      </trkpt>
      <trkpt lat="48.72327" lon="1.97976">
        <ele>158.9</ele>
        <time>2022-03-29T07:49:57Z</time>
      </trkpt>
      <trkpt lat="48.72325" lon="1.97961">
        <ele>158.5</ele>
        <time>2022-03-29T07:50:04Z</time>
      </trkpt>
      <trkpt lat="48.72322" lon="1.97946">
        <ele>158.2</ele>
        <time>2022-03-29T07:50:11Z</time>
      </trkpt>
      <trkpt lat="48.72316" lon="1.97934">
        <ele>158.4</ele>
        <time>2022-03-29T07:50:18Z</time>
      </trkpt>
      <trkpt lat="48.72308" lon="1.97926">
        <ele>159</ele>
        <time>2022-03-29T07:50:25Z</time>
      </trkpt>
      <trkpt lat="48.723" lon="1.9792">
        <ele>159.7</ele>
        <time>2022-03-29T07:50:32Z</time>
      </trkpt>
      <trkpt lat="48.7229" lon="1.97916">
        <ele>160.6</ele>
        <time>2022-03-29T07:50:39Z</time>
      </trkpt>
      <trkpt lat="48.72282" lon="1.97909">
        <ele>161.2</ele>
        <time>2022-03-29T07:50:45Z</time>
      </trkpt>
      <trkpt lat="48.72276" lon="1.97898">
        <ele>161.4</ele>
        <time>2022-03-29T07:50:51Z</time>
      </trkpt>
      <trkpt lat="48.72271" lon="1.97884">
        <ele>161.1</ele>
        <time>2022-03-29T07:50:58Z</time>
      </trkpt>
      <trkpt lat="48.72267" lon="1.9787">
        <ele>161</ele>
        <time>2022-03-29T07:51:05Z</time>
      </trkpt>
      <trkpt lat="48.72263" lon="1.97856">
        <ele>160.9</ele>
        <time>2022-03-29T07:51:12Z</time>
      </trkpt>
      <trkpt lat="48.72259" lon="1.97843">
        <ele>160.9</ele>
        <time>2022-03-29T07:51:18Z</time>
      </trkpt>
      <trkpt lat="48.72254" lon="1.9783">
        <ele>161.3</ele>
        <time>2022-03-29T07:51:26Z</time>
      </trkpt>
      <trkpt lat="48.72249" lon="1.97818">
        <ele>161.5</ele>
        <time>2022-03-29T07:51:32Z</time>
      </trkpt>
      <trkpt lat="48.72243" lon="1.97805">
        <ele>161.2</ele>
        <time>2022-03-29T07:51:39Z</time>
      </trkpt>
      <trkpt lat="48.72237" lon="1.97795">
        <ele>161.1</ele>
        <time>2022-03-29T07:51:46Z</time>
      </trkpt>
      <trkpt lat="48.72233" lon="1.97781">
        <ele>160.9</ele>
        <time>2022-03-29T07:51:53Z</time>
      </trkpt>
      <trkpt lat="48.72229" lon="1.97768">
        <ele>161</ele>
        <time>2022-03-29T07:51:58Z</time>
      </trkpt>
      <trkpt lat="48.72228" lon="1.97754">
        <ele>160.7</ele>
        <time>2022-03-29T07:52:05Z</time>
      </trkpt>
      <trkpt lat="48.72225" lon="1.97741">
        <ele>160.8</ele>
        <time>2022-03-29T07:52:12Z</time>
      </trkpt>
      <trkpt lat="48.72223" lon="1.97728">
        <ele>161</ele>
        <time>2022-03-29T07:52:19Z</time>
      </trkpt>
      <trkpt lat="48.72221" lon="1.97714">
        <ele>160.7</ele>
        <time>2022-03-29T07:52:27Z</time>
      </trkpt>
      <trkpt lat="48.72219" lon="1.977">
        <ele>160.4</ele>
        <time>2022-03-29T07:52:37Z</time>
      </trkpt>
      <trkpt lat="48.72213" lon="1.97689">
        <ele>160.6</ele>
        <time>2022-03-29T07:52:45Z</time>
      </trkpt>
      <trkpt lat="48.72207" lon="1.97676">
        <ele>161.1</ele>
        <time>2022-03-29T07:52:51Z</time>
      </trkpt>
      <trkpt lat="48.72202" lon="1.97663">
        <ele>161.4</ele>
        <time>2022-03-29T07:52:57Z</time>
      </trkpt>
      <trkpt lat="48.72197" lon="1.97651">
        <ele>161.8</ele>
        <time>2022-03-29T07:53:05Z</time>
      </trkpt>
      <trkpt lat="48.72191" lon="1.97641">
        <ele>162.1</ele>
        <time>2022-03-29T07:53:14Z</time>
      </trkpt>
      <trkpt lat="48.72185" lon="1.97629">
        <ele>162</ele>
        <time>2022-03-29T07:53:22Z</time>
      </trkpt>
      <trkpt lat="48.72179" lon="1.97619">
        <ele>161.9</ele>
        <time>2022-03-29T07:53:29Z</time>
      </trkpt>
      <trkpt lat="48.72172" lon="1.9761">
        <ele>161.8</ele>
        <time>2022-03-29T07:53:35Z</time>
      </trkpt>
      <trkpt lat="48.72164" lon="1.97602">
        <ele>161.7</ele>
        <time>2022-03-29T07:53:42Z</time>
      </trkpt>
      <trkpt lat="48.72159" lon="1.97589">
        <ele>161.2</ele>
        <time>2022-03-29T07:53:50Z</time>
      </trkpt>
      <trkpt lat="48.72154" lon="1.97576">
        <ele>160.6</ele>
        <time>2022-03-29T07:53:56Z</time>
      </trkpt>
      <trkpt lat="48.7215" lon="1.97564">
        <ele>160</ele>
        <time>2022-03-29T07:54:02Z</time>
      </trkpt>
      <trkpt lat="48.72145" lon="1.97551">
        <ele>159.4</ele>
        <time>2022-03-29T07:54:09Z</time>
      </trkpt>
      <trkpt lat="48.72142" lon="1.97537">
        <ele>158.6</ele>
        <time>2022-03-29T07:54:17Z</time>
      </trkpt>
      <trkpt lat="48.72138" lon="1.97525">
        <ele>157.6</ele>
        <time>2022-03-29T07:54:23Z</time>
      </trkpt>
      <trkpt lat="48.72133" lon="1.97511">
        <ele>156.3</ele>
        <time>2022-03-29T07:54:31Z</time>
      </trkpt>
      <trkpt lat="48.72131" lon="1.97497">
        <ele>154.9</ele>
        <time>2022-03-29T07:54:37Z</time>
      </trkpt>
      <trkpt lat="48.72129" lon="1.97483">
        <ele>153.8</ele>
        <time>2022-03-29T07:54:45Z</time>
      </trkpt>
      <trkpt lat="48.72127" lon="1.97468">
        <ele>152.7</ele>
        <time>2022-03-29T07:54:52Z</time>
      </trkpt>
      <trkpt lat="48.72125" lon="1.97454">
        <ele>151.1</ele>
        <time>2022-03-29T07:54:59Z</time>
      </trkpt>
      <trkpt lat="48.72123" lon="1.97439">
        <ele>149.9</ele>
        <time>2022-03-29T07:55:10Z</time>
      </trkpt>
      <trkpt lat="48.72124" lon="1.97424">
        <ele>148.3</ele>
        <time>2022-03-29T07:55:18Z</time>
      </trkpt>
      <trkpt lat="48.72125" lon="1.9741">
        <ele>146.7</ele>
        <time>2022-03-29T07:55:26Z</time>
      </trkpt>
      <trkpt lat="48.72125" lon="1.97395">
        <ele>145.2</ele>
        <time>2022-03-29T07:55:32Z</time>
      </trkpt>
      <trkpt lat="48.72122" lon="1.97381">
        <ele>144.3</ele>
        <time>2022-03-29T07:55:38Z</time>
      </trkpt>
      <trkpt lat="48.72117" lon="1.97369">
        <ele>143.8</ele>
        <time>2022-03-29T07:55:45Z</time>
      </trkpt>
      <trkpt lat="48.72113" lon="1.97355">
        <ele>142.7</ele>
        <time>2022-03-29T07:55:53Z</time>
      </trkpt>
      <trkpt lat="48.72108" lon="1.97342">
        <ele>141.6</ele>
        <time>2022-03-29T07:56:01Z</time>
      </trkpt>
      <trkpt lat="48.72101" lon="1.97334">
        <ele>141.2</ele>
        <time>2022-03-29T07:56:09Z</time>
      </trkpt>
      <trkpt lat="48.72095" lon="1.97322">
        <ele>140.4</ele>
        <time>2022-03-29T07:56:16Z</time>
      </trkpt>
      <trkpt lat="48.72088" lon="1.97312">
        <ele>140.1</ele>
        <time>2022-03-29T07:56:23Z</time>
      </trkpt>
      <trkpt lat="48.72083" lon="1.973">
        <ele>139.5</ele>
        <time>2022-03-29T07:56:31Z</time>
      </trkpt>
      <trkpt lat="48.72082" lon="1.97286">
        <ele>138.3</ele>
        <time>2022-03-29T07:56:40Z</time>
      </trkpt>
      <trkpt lat="48.72086" lon="1.97272">
        <ele>136.2</ele>
        <time>2022-03-29T07:56:48Z</time>
      </trkpt>
      <trkpt lat="48.72084" lon="1.97258">
        <ele>135.5</ele>
        <time>2022-03-29T07:56:55Z</time>
      </trkpt>
      <trkpt lat="48.7208" lon="1.97244">
        <ele>134.8</ele>
        <time>2022-03-29T07:57:03Z</time>
      </trkpt>
      <trkpt lat="48.72078" lon="1.97229">
        <ele>133.1</ele>
        <time>2022-03-29T07:57:12Z</time>
      </trkpt>
      <trkpt lat="48.72076" lon="1.97214">
        <ele>131.5</ele>
        <time>2022-03-29T07:57:20Z</time>
      </trkpt>
      <trkpt lat="48.72073" lon="1.97201">
        <ele>130.4</ele>
        <time>2022-03-29T07:57:26Z</time>
      </trkpt>
      <trkpt lat="48.72071" lon="1.97186">
        <ele>128.6</ele>
        <time>2022-03-29T07:57:34Z</time>
      </trkpt>
      <trkpt lat="48.72064" lon="1.97177">
        <ele>128.1</ele>
        <time>2022-03-29T07:59:08Z</time>
      </trkpt>
      <trkpt lat="48.72055" lon="1.9717">
        <ele>127.7</ele>
        <time>2022-03-29T07:59:15Z</time>
      </trkpt>
      <trkpt lat="48.72046" lon="1.97164">
        <ele>128.1</ele>
        <time>2022-03-29T07:59:23Z</time>
      </trkpt>
      <trkpt lat="48.72037" lon="1.97156">
        <ele>128.4</ele>
        <time>2022-03-29T07:59:31Z</time>
      </trkpt>
      <trkpt lat="48.72028" lon="1.97151">
        <ele>128.6</ele>
        <time>2022-03-29T07:59:38Z</time>
      </trkpt>
      <trkpt lat="48.7202" lon="1.97142">
        <ele>128.7</ele>
        <time>2022-03-29T07:59:45Z</time>
      </trkpt>
      <trkpt lat="48.72014" lon="1.97131">
        <ele>127.9</ele>
        <time>2022-03-29T07:59:50Z</time>
      </trkpt>
      <trkpt lat="48.72006" lon="1.97124">
        <ele>127.7</ele>
        <time>2022-03-29T07:59:57Z</time>
      </trkpt>
      <trkpt lat="48.71998" lon="1.97115">
        <ele>127</ele>
        <time>2022-03-29T08:00:03Z</time>
      </trkpt>
      <trkpt lat="48.71991" lon="1.97105">
        <ele>126.2</ele>
        <time>2022-03-29T08:00:09Z</time>
      </trkpt>
      <trkpt lat="48.71982" lon="1.97098">
        <ele>126.1</ele>
        <time>2022-03-29T08:00:16Z</time>
      </trkpt>
      <trkpt lat="48.71974" lon="1.9709">
        <ele>125.9</ele>
        <time>2022-03-29T08:00:22Z</time>
      </trkpt>
      <trkpt lat="48.71967" lon="1.97083">
        <ele>124.9</ele>
        <time>2022-03-29T08:00:28Z</time>
      </trkpt>
      <trkpt lat="48.71958" lon="1.97076">
        <ele>123.6</ele>
        <time>2022-03-29T08:00:34Z</time>
      </trkpt>
      <trkpt lat="48.71949" lon="1.97071">
        <ele>122.7</ele>
        <time>2022-03-29T08:00:40Z</time>
      </trkpt>
      <trkpt lat="48.7194" lon="1.97066">
        <ele>120.7</ele>
        <time>2022-03-29T08:00:47Z</time>
      </trkpt>
      <trkpt lat="48.7193" lon="1.9707">
        <ele>119.6</ele>
        <time>2022-03-29T08:00:56Z</time>
      </trkpt>
      <trkpt lat="48.71922" lon="1.97078">
        <ele>119.8</ele>
        <time>2022-03-29T08:01:05Z</time>
      </trkpt>
      <trkpt lat="48.71915" lon="1.97086">
        <ele>120.3</ele>
        <time>2022-03-29T08:01:11Z</time>
      </trkpt>
      <trkpt lat="48.71905" lon="1.97094">
        <ele>119.8</ele>
        <time>2022-03-29T08:01:18Z</time>
      </trkpt>
      <trkpt lat="48.71898" lon="1.97103">
        <ele>120.9</ele>
        <time>2022-03-29T08:01:27Z</time>
      </trkpt>
      <trkpt lat="48.71891" lon="1.97111">
        <ele>121.7</ele>
        <time>2022-03-29T08:01:35Z</time>
      </trkpt>
      <trkpt lat="48.71883" lon="1.9712">
        <ele>123</ele>
        <time>2022-03-29T08:01:48Z</time>
      </trkpt>
      <trkpt lat="48.71874" lon="1.97116">
        <ele>120.3</ele>
        <time>2022-03-29T08:02:00Z</time>
      </trkpt>
      <trkpt lat="48.71866" lon="1.9711">
        <ele>115.8</ele>
        <time>2022-03-29T08:02:15Z</time>
      </trkpt>
      <trkpt lat="48.71857" lon="1.97107">
        <ele>113.4</ele>
        <time>2022-03-29T08:02:23Z</time>
      </trkpt>
      <trkpt lat="48.71847" lon="1.97107">
        <ele>112.8</ele>
        <time>2022-03-29T08:02:31Z</time>
      </trkpt>
      <trkpt lat="48.71838" lon="1.97107">
        <ele>112.1</ele>
        <time>2022-03-29T08:02:40Z</time>
      </trkpt>
      <trkpt lat="48.71828" lon="1.97105">
        <ele>111.3</ele>
        <time>2022-03-29T08:02:50Z</time>
      </trkpt>
      <trkpt lat="48.71819" lon="1.97106">
        <ele>111.4</ele>
        <time>2022-03-29T08:02:57Z</time>
      </trkpt>
      <trkpt lat="48.7181" lon="1.971">
        <ele>109.4</ele>
        <time>2022-03-29T08:03:03Z</time>
      </trkpt>
      <trkpt lat="48.71801" lon="1.97094">
        <ele>107.6</ele>
        <time>2022-03-29T08:03:11Z</time>
      </trkpt>
      <trkpt lat="48.71792" lon="1.97088">
        <ele>106.1</ele>
        <time>2022-03-29T08:03:19Z</time>
      </trkpt>
      <trkpt lat="48.71784" lon="1.97082">
        <ele>105.5</ele>
        <time>2022-03-29T08:03:27Z</time>
      </trkpt>
      <trkpt lat="48.71775" lon="1.97078">
        <ele>105.4</ele>
        <time>2022-03-29T08:03:34Z</time>
      </trkpt>
      <trkpt lat="48.71766" lon="1.97073">
        <ele>104.2</ele>
        <time>2022-03-29T08:03:42Z</time>
      </trkpt>
      <trkpt lat="48.71757" lon="1.97067">
        <ele>102.9</ele>
        <time>2022-03-29T08:03:50Z</time>
      </trkpt>
      <trkpt lat="48.71747" lon="1.97066">
        <ele>101.8</ele>
        <time>2022-03-29T08:03:58Z</time>
      </trkpt>
      <trkpt lat="48.71739" lon="1.97058">
        <ele>100.4</ele>
        <time>2022-03-29T08:04:08Z</time>
      </trkpt>
      <trkpt lat="48.71734" lon="1.97046">
        <ele>99.9</ele>
        <time>2022-03-29T08:04:21Z</time>
      </trkpt>
      <trkpt lat="48.71733" lon="1.97032">
        <ele>100</ele>
        <time>2022-03-29T08:04:34Z</time>
      </trkpt>
      <trkpt lat="48.71739" lon="1.9702">
        <ele>100.3</ele>
        <time>2022-03-29T08:04:44Z</time>
      </trkpt>
      <trkpt lat="48.71746" lon="1.97012">
        <ele>100.6</ele>
        <time>2022-03-29T08:05:19Z</time>
      </trkpt>
      <trkpt lat="48.71752" lon="1.97001">
        <ele>100.9</ele>
        <time>2022-03-29T08:05:33Z</time>
      </trkpt>
      <trkpt lat="48.71755" lon="1.96988">
        <ele>101.3</ele>
        <time>2022-03-29T08:05:44Z</time>
      </trkpt>
      <trkpt lat="48.71755" lon="1.96973">
        <ele>102</ele>
        <time>2022-03-29T08:05:51Z</time>
      </trkpt>
      <trkpt lat="48.71756" lon="1.96959">
        <ele>101.8</ele>
        <time>2022-03-29T08:05:59Z</time>
      </trkpt>
      <trkpt lat="48.71754" lon="1.96943">
        <ele>101.7</ele>
        <time>2022-03-29T08:06:05Z</time>
      </trkpt>
      <trkpt lat="48.71762" lon="1.96936">
        <ele>101.4</ele>
        <time>2022-03-29T08:06:13Z</time>
      </trkpt>
      <trkpt lat="48.7177" lon="1.9693">
        <ele>101.3</ele>
        <time>2022-03-29T08:06:21Z</time>
      </trkpt>
      <trkpt lat="48.71774" lon="1.96917">
        <ele>102</ele>
        <time>2022-03-29T08:06:31Z</time>
      </trkpt>
      <trkpt lat="48.71778" lon="1.96903">
        <ele>102.6</ele>
        <time>2022-03-29T08:06:39Z</time>
      </trkpt>
      <trkpt lat="48.71782" lon="1.9689">
        <ele>103.4</ele>
        <time>2022-03-29T08:06:45Z</time>
      </trkpt>
      <trkpt lat="48.71785" lon="1.96876">
        <ele>104.2</ele>
        <time>2022-03-29T08:06:51Z</time>
      </trkpt>
      <trkpt lat="48.71787" lon="1.96862">
        <ele>105.2</ele>
        <time>2022-03-29T08:06:58Z</time>
      </trkpt>
      <trkpt lat="48.7179" lon="1.96849">
        <ele>106.3</ele>
        <time>2022-03-29T08:07:05Z</time>
      </trkpt>
      <trkpt lat="48.71789" lon="1.96835">
        <ele>106.7</ele>
        <time>2022-03-29T08:07:12Z</time>
      </trkpt>
      <trkpt lat="48.7179" lon="1.96821">
        <ele>106.2</ele>
        <time>2022-03-29T08:07:21Z</time>
      </trkpt>
      <trkpt lat="48.71792" lon="1.96807">
        <ele>106.1</ele>
        <time>2022-03-29T08:07:29Z</time>
      </trkpt>
      <trkpt lat="48.71789" lon="1.96793">
        <ele>105.2</ele>
        <time>2022-03-29T08:07:35Z</time>
      </trkpt>
      <trkpt lat="48.7179" lon="1.96779">
        <ele>105.1</ele>
        <time>2022-03-29T08:07:43Z</time>
      </trkpt>
      <trkpt lat="48.71792" lon="1.96765">
        <ele>104.9</ele>
        <time>2022-03-29T08:07:52Z</time>
      </trkpt>
      <trkpt lat="48.71798" lon="1.96754">
        <ele>105.2</ele>
        <time>2022-03-29T08:08:00Z</time>
      </trkpt>
      <trkpt lat="48.71802" lon="1.96741">
        <ele>105.2</ele>
        <time>2022-03-29T08:08:09Z</time>
      </trkpt>
      <trkpt lat="48.71805" lon="1.96727">
        <ele>105.2</ele>
        <time>2022-03-29T08:08:16Z</time>
      </trkpt>
      <trkpt lat="48.71806" lon="1.96712">
        <ele>105.1</ele>
        <time>2022-03-29T08:08:24Z</time>
      </trkpt>
      <trkpt lat="48.71808" lon="1.96699">
        <ele>105.6</ele>
        <time>2022-03-29T08:08:31Z</time>
      </trkpt>
      <trkpt lat="48.71809" lon="1.96683">
        <ele>105.4</ele>
        <time>2022-03-29T08:08:38Z</time>
      </trkpt>
      <trkpt lat="48.71811" lon="1.9667">
        <ele>105.7</ele>
        <time>2022-03-29T08:08:49Z</time>
      </trkpt>
      <trkpt lat="48.71812" lon="1.96655">
        <ele>105.4</ele>
        <time>2022-03-29T08:08:55Z</time>
      </trkpt>
      <trkpt lat="48.71816" lon="1.96642">
        <ele>106.1</ele>
        <time>2022-03-29T08:09:03Z</time>
      </trkpt>
      <trkpt lat="48.71819" lon="1.96627">
        <ele>106.4</ele>
        <time>2022-03-29T08:09:10Z</time>
      </trkpt>
      <trkpt lat="48.71822" lon="1.96613">
        <ele>105.7</ele>
        <time>2022-03-29T08:09:17Z</time>
      </trkpt>
      <trkpt lat="48.71827" lon="1.96601">
        <ele>105.6</ele>
        <time>2022-03-29T08:09:26Z</time>
      </trkpt>
      <trkpt lat="48.71831" lon="1.96589">
        <ele>104.5</ele>
        <time>2022-03-29T08:09:35Z</time>
      </trkpt>
      <trkpt lat="48.71838" lon="1.96578">
        <ele>105.8</ele>
        <time>2022-03-29T08:09:54Z</time>
      </trkpt>
      <trkpt lat="48.71842" lon="1.96565">
        <ele>107</ele>
        <time>2022-03-29T08:10:27Z</time>
      </trkpt>
      <trkpt lat="48.71847" lon="1.96553">
        <ele>108.5</ele>
        <time>2022-03-29T08:10:38Z</time>
      </trkpt>
      <trkpt lat="48.71845" lon="1.9654">
        <ele>106.8</ele>
        <time>2022-03-29T08:11:25Z</time>
      </trkpt>
      <trkpt lat="48.7185" lon="1.96527">
        <ele>107.1</ele>
        <time>2022-03-29T08:12:02Z</time>
      </trkpt>
      <trkpt lat="48.71853" lon="1.96513">
        <ele>106.2</ele>
        <time>2022-03-29T08:12:15Z</time>
      </trkpt>
      <trkpt lat="48.7186" lon="1.96505">
        <ele>106.5</ele>
        <time>2022-03-29T08:12:23Z</time>
      </trkpt>
      <trkpt lat="48.71865" lon="1.96493">
        <ele>106.7</ele>
        <time>2022-03-29T08:12:34Z</time>
      </trkpt>
      <trkpt lat="48.7187" lon="1.9648">
        <ele>107.2</ele>
        <time>2022-03-29T08:12:44Z</time>
      </trkpt>
      <trkpt lat="48.71873" lon="1.96467">
        <ele>107.2</ele>
        <time>2022-03-29T08:12:52Z</time>
      </trkpt>
      <trkpt lat="48.71877" lon="1.96454">
        <ele>107.3</ele>
        <time>2022-03-29T08:13:00Z</time>
      </trkpt>
      <trkpt lat="48.7188" lon="1.96439">
        <ele>107.2</ele>
        <time>2022-03-29T08:13:08Z</time>
      </trkpt>
      <trkpt lat="48.71883" lon="1.96425">
        <ele>107.4</ele>
        <time>2022-03-29T08:13:15Z</time>
      </trkpt>
      <trkpt lat="48.71887" lon="1.96412">
        <ele>107.4</ele>
        <time>2022-03-29T08:13:22Z</time>
      </trkpt>
      <trkpt lat="48.71891" lon="1.96397">
        <ele>106.9</ele>
        <time>2022-03-29T08:13:29Z</time>
      </trkpt>
      <trkpt lat="48.71894" lon="1.96383">
        <ele>106.7</ele>
        <time>2022-03-29T08:13:34Z</time>
      </trkpt>
      <trkpt lat="48.71895" lon="1.9637">
        <ele>106.5</ele>
        <time>2022-03-29T08:13:40Z</time>
      </trkpt>
      <trkpt lat="48.71898" lon="1.96355">
        <ele>106.6</ele>
        <time>2022-03-29T08:13:46Z</time>
      </trkpt>
      <trkpt lat="48.71901" lon="1.96341">
        <ele>107</ele>
        <time>2022-03-29T08:13:52Z</time>
      </trkpt>
      <trkpt lat="48.71906" lon="1.96328">
        <ele>107.9</ele>
        <time>2022-03-29T08:13:58Z</time>
      </trkpt>
      <trkpt lat="48.7191" lon="1.96315">
        <ele>108.3</ele>
        <time>2022-03-29T08:14:05Z</time>
      </trkpt>
      <trkpt lat="48.71915" lon="1.96302">
        <ele>108.2</ele>
        <time>2022-03-29T08:14:12Z</time>
      </trkpt>
      <trkpt lat="48.71921" lon="1.96292">
        <ele>108.7</ele>
        <time>2022-03-29T08:14:19Z</time>
      </trkpt>
      <trkpt lat="48.71927" lon="1.96281">
        <ele>108.9</ele>
        <time>2022-03-29T08:14:26Z</time>
      </trkpt>
      <trkpt lat="48.71932" lon="1.96269">
        <ele>109.4</ele>
        <time>2022-03-29T08:14:33Z</time>
      </trkpt>
      <trkpt lat="48.71937" lon="1.96255">
        <ele>110.2</ele>
        <time>2022-03-29T08:14:40Z</time>
      </trkpt>
      <trkpt lat="48.7194" lon="1.96241">
        <ele>110.9</ele>
        <time>2022-03-29T08:14:46Z</time>
      </trkpt>
      <trkpt lat="48.71944" lon="1.96227">
        <ele>112</ele>
        <time>2022-03-29T08:14:54Z</time>
      </trkpt>
      <trkpt lat="48.71947" lon="1.96213">
        <ele>111.3</ele>
        <time>2022-03-29T08:15:03Z</time>
      </trkpt>
      <trkpt lat="48.71946" lon="1.96197">
        <ele>108.7</ele>
        <time>2022-03-29T08:15:09Z</time>
      </trkpt>
      <trkpt lat="48.71943" lon="1.96183">
        <ele>106.6</ele>
        <time>2022-03-29T08:15:15Z</time>
      </trkpt>
      <trkpt lat="48.71944" lon="1.96167">
        <ele>105.1</ele>
        <time>2022-03-29T08:15:22Z</time>
      </trkpt>
      <trkpt lat="48.71943" lon="1.96153">
        <ele>104.9</ele>
        <time>2022-03-29T08:15:27Z</time>
      </trkpt>
      <trkpt lat="48.71941" lon="1.96138">
        <ele>104.8</ele>
        <time>2022-03-29T08:15:32Z</time>
      </trkpt>
      <trkpt lat="48.71937" lon="1.96124">
        <ele>104.4</ele>
        <time>2022-03-29T08:15:36Z</time>
      </trkpt>
      <trkpt lat="48.71932" lon="1.96112">
        <ele>104.1</ele>
        <time>2022-03-29T08:15:40Z</time>
      </trkpt>
      <trkpt lat="48.71925" lon="1.96103">
        <ele>103.6</ele>
        <time>2022-03-29T08:15:45Z</time>
      </trkpt>
      <trkpt lat="48.71916" lon="1.96095">
        <ele>103</ele>
        <time>2022-03-29T08:15:51Z</time>
      </trkpt>
      <trkpt lat="48.71908" lon="1.96089">
        <ele>103</ele>
        <time>2022-03-29T08:15:57Z</time>
      </trkpt>
      <trkpt lat="48.71899" lon="1.96093">
        <ele>103</ele>
        <time>2022-03-29T08:16:04Z</time>
      </trkpt>
      <trkpt lat="48.7189" lon="1.96099">
        <ele>103</ele>
        <time>2022-03-29T08:16:11Z</time>
      </trkpt>
      <trkpt lat="48.71888" lon="1.96113">
        <ele>103</ele>
        <time>2022-03-29T08:16:22Z</time>
      </trkpt>
      <trkpt lat="48.71887" lon="1.96127">
        <ele>103</ele>
        <time>2022-03-29T08:16:33Z</time>
      </trkpt>
      <trkpt lat="48.71888" lon="1.96141">
        <ele>103</ele>
        <time>2022-03-29T08:16:41Z</time>
      </trkpt>
      <trkpt lat="48.71889" lon="1.96156">
        <ele>103</ele>
        <time>2022-03-29T08:16:50Z</time>
      </trkpt>
      <trkpt lat="48.71885" lon="1.96168">
        <ele>103</ele>
        <time>2022-03-29T08:16:57Z</time>
      </trkpt>
      <trkpt lat="48.71878" lon="1.96177">
        <ele>103</ele>
        <time>2022-03-29T08:17:03Z</time>
      </trkpt>
      <trkpt lat="48.71871" lon="1.96189">
        <ele>103</ele>
        <time>2022-03-29T08:17:10Z</time>
      </trkpt>
      <trkpt lat="48.71866" lon="1.962">
        <ele>103</ele>
        <time>2022-03-29T08:17:15Z</time>
      </trkpt>
      <trkpt lat="48.7186" lon="1.96211">
        <ele>103</ele>
        <time>2022-03-29T08:17:23Z</time>
      </trkpt>
      <trkpt lat="48.71854" lon="1.96224">
        <ele>103.2</ele>
        <time>2022-03-29T08:17:31Z</time>
      </trkpt>
      <trkpt lat="48.7185" lon="1.96237">
        <ele>103.2</ele>
        <time>2022-03-29T08:17:38Z</time>
      </trkpt>
      <trkpt lat="48.71846" lon="1.9625">
        <ele>103</ele>
        <time>2022-03-29T08:17:47Z</time>
      </trkpt>
      <trkpt lat="48.71845" lon="1.96263">
        <ele>103</ele>
        <time>2022-03-29T08:17:54Z</time>
      </trkpt>
      <trkpt lat="48.71848" lon="1.96277">
        <ele>103</ele>
        <time>2022-03-29T08:18:02Z</time>
      </trkpt>
      <trkpt lat="48.7185" lon="1.96292">
        <ele>103</ele>
        <time>2022-03-29T08:18:10Z</time>
      </trkpt>
      <trkpt lat="48.71848" lon="1.96306">
        <ele>103</ele>
        <time>2022-03-29T08:18:18Z</time>
      </trkpt>
      <trkpt lat="48.71839" lon="1.96313">
        <ele>103</ele>
        <time>2022-03-29T08:18:27Z</time>
      </trkpt>
      <trkpt lat="48.71829" lon="1.96318">
        <ele>103.1</ele>
        <time>2022-03-29T08:18:34Z</time>
      </trkpt>
      <trkpt lat="48.71823" lon="1.96329">
        <ele>103.1</ele>
        <time>2022-03-29T08:18:41Z</time>
      </trkpt>
      <trkpt lat="48.71818" lon="1.96341">
        <ele>103</ele>
        <time>2022-03-29T08:18:49Z</time>
      </trkpt>
      <trkpt lat="48.71812" lon="1.96353">
        <ele>103</ele>
        <time>2022-03-29T08:18:57Z</time>
      </trkpt>
      <trkpt lat="48.71808" lon="1.96365">
        <ele>103</ele>
        <time>2022-03-29T08:19:05Z</time>
      </trkpt>
      <trkpt lat="48.71803" lon="1.96377">
        <ele>103.1</ele>
        <time>2022-03-29T08:19:13Z</time>
      </trkpt>
      <trkpt lat="48.718" lon="1.96391">
        <ele>103.2</ele>
        <time>2022-03-29T08:19:21Z</time>
      </trkpt>
      <trkpt lat="48.71796" lon="1.96404">
        <ele>103.2</ele>
        <time>2022-03-29T08:19:27Z</time>
      </trkpt>
      <trkpt lat="48.71794" lon="1.96418">
        <ele>103</ele>
        <time>2022-03-29T08:19:35Z</time>
      </trkpt>
      <trkpt lat="48.7179" lon="1.96432">
        <ele>102.7</ele>
        <time>2022-03-29T08:19:43Z</time>
      </trkpt>
      <trkpt lat="48.71787" lon="1.96446">
        <ele>102.7</ele>
        <time>2022-03-29T08:19:51Z</time>
      </trkpt>
      <trkpt lat="48.71782" lon="1.96459">
        <ele>102.9</ele>
        <time>2022-03-29T08:20:00Z</time>
      </trkpt>
      <trkpt lat="48.71777" lon="1.96471">
        <ele>103</ele>
        <time>2022-03-29T08:20:08Z</time>
      </trkpt>
      <trkpt lat="48.71772" lon="1.96485">
        <ele>103</ele>
        <time>2022-03-29T08:20:16Z</time>
      </trkpt>
      <trkpt lat="48.71766" lon="1.96496">
        <ele>103</ele>
        <time>2022-03-29T08:20:23Z</time>
      </trkpt>
      <trkpt lat="48.71761" lon="1.96508">
        <ele>102.9</ele>
        <time>2022-03-29T08:20:30Z</time>
      </trkpt>
      <trkpt lat="48.71756" lon="1.96521">
        <ele>102.8</ele>
        <time>2022-03-29T08:20:37Z</time>
      </trkpt>
      <trkpt lat="48.7175" lon="1.96533">
        <ele>103</ele>
        <time>2022-03-29T08:20:44Z</time>
      </trkpt>
      <trkpt lat="48.71744" lon="1.96543">
        <ele>103</ele>
        <time>2022-03-29T08:20:52Z</time>
      </trkpt>
      <trkpt lat="48.71737" lon="1.96555">
        <ele>103</ele>
        <time>2022-03-29T08:20:59Z</time>
      </trkpt>
      <trkpt lat="48.71732" lon="1.96567">
        <ele>102.9</ele>
        <time>2022-03-29T08:21:06Z</time>
      </trkpt>
      <trkpt lat="48.71726" lon="1.96579">
        <ele>102.9</ele>
        <time>2022-03-29T08:21:13Z</time>
      </trkpt>
      <trkpt lat="48.7172" lon="1.96589">
        <ele>103</ele>
        <time>2022-03-29T08:21:19Z</time>
      </trkpt>
      <trkpt lat="48.71715" lon="1.96601">
        <ele>103</ele>
        <time>2022-03-29T08:21:25Z</time>
      </trkpt>
      <trkpt lat="48.7171" lon="1.96613">
        <ele>103</ele>
        <time>2022-03-29T08:21:31Z</time>
      </trkpt>
      <trkpt lat="48.71705" lon="1.96626">
        <ele>102.8</ele>
        <time>2022-03-29T08:21:39Z</time>
      </trkpt>
      <trkpt lat="48.717" lon="1.96638">
        <ele>102.8</ele>
        <time>2022-03-29T08:21:46Z</time>
      </trkpt>
      <trkpt lat="48.71695" lon="1.96649">
        <ele>103</ele>
        <time>2022-03-29T08:21:53Z</time>
      </trkpt>
      <trkpt lat="48.7169" lon="1.96662">
        <ele>103</ele>
        <time>2022-03-29T08:22:00Z</time>
      </trkpt>
      <trkpt lat="48.71685" lon="1.96674">
        <ele>102.9</ele>
        <time>2022-03-29T08:22:07Z</time>
      </trkpt>
      <trkpt lat="48.71678" lon="1.96686">
        <ele>103.1</ele>
        <time>2022-03-29T08:22:15Z</time>
      </trkpt>
      <trkpt lat="48.71672" lon="1.96698">
        <ele>103.5</ele>
        <time>2022-03-29T08:22:23Z</time>
      </trkpt>
      <trkpt lat="48.71667" lon="1.9671">
        <ele>103.4</ele>
        <time>2022-03-29T08:22:30Z</time>
      </trkpt>
      <trkpt lat="48.71662" lon="1.96723">
        <ele>103.3</ele>
        <time>2022-03-29T08:22:37Z</time>
      </trkpt>
      <trkpt lat="48.71658" lon="1.96736">
        <ele>104</ele>
        <time>2022-03-29T08:23:44Z</time>
      </trkpt>
      <trkpt lat="48.71658" lon="1.96751">
        <ele>104.3</ele>
        <time>2022-03-29T08:24:05Z</time>
      </trkpt>
      <trkpt lat="48.71655" lon="1.96764">
        <ele>103.9</ele>
        <time>2022-03-29T08:24:11Z</time>
      </trkpt>
      <trkpt lat="48.7165" lon="1.96777">
        <ele>103.6</ele>
        <time>2022-03-29T08:24:18Z</time>
      </trkpt>
      <trkpt lat="48.71643" lon="1.96785">
        <ele>103.6</ele>
        <time>2022-03-29T08:24:27Z</time>
      </trkpt>
      <trkpt lat="48.71635" lon="1.96795">
        <ele>103.7</ele>
        <time>2022-03-29T08:24:34Z</time>
      </trkpt>
      <trkpt lat="48.71629" lon="1.96804">
        <ele>103.8</ele>
        <time>2022-03-29T08:24:40Z</time>
      </trkpt>
      <trkpt lat="48.71621" lon="1.96812">
        <ele>104</ele>
        <time>2022-03-29T08:24:47Z</time>
      </trkpt>
      <trkpt lat="48.71614" lon="1.96821">
        <ele>103.8</ele>
        <time>2022-03-29T08:24:53Z</time>
      </trkpt>
      <trkpt lat="48.7161" lon="1.96834">
        <ele>103.2</ele>
        <time>2022-03-29T08:24:59Z</time>
      </trkpt>
      <trkpt lat="48.71607" lon="1.96848">
        <ele>103.4</ele>
        <time>2022-03-29T08:25:05Z</time>
      </trkpt>
      <trkpt lat="48.71603" lon="1.96862">
        <ele>103.6</ele>
        <time>2022-03-29T08:25:12Z</time>
      </trkpt>
      <trkpt lat="48.71594" lon="1.96869">
        <ele>104.3</ele>
        <time>2022-03-29T08:25:19Z</time>
      </trkpt>
      <trkpt lat="48.71585" lon="1.96868">
        <ele>105.1</ele>
        <time>2022-03-29T08:25:27Z</time>
      </trkpt>
      <trkpt lat="48.71575" lon="1.96865">
        <ele>105.7</ele>
        <time>2022-03-29T08:25:35Z</time>
      </trkpt>
      <trkpt lat="48.71565" lon="1.96862">
        <ele>106.3</ele>
        <time>2022-03-29T08:25:42Z</time>
      </trkpt>
      <trkpt lat="48.71557" lon="1.96855">
        <ele>107.1</ele>
        <time>2022-03-29T08:25:50Z</time>
      </trkpt>
      <trkpt lat="48.71547" lon="1.96851">
        <ele>108.2</ele>
        <time>2022-03-29T08:25:57Z</time>
      </trkpt>
      <trkpt lat="48.71537" lon="1.96849">
        <ele>109.2</ele>
        <time>2022-03-29T08:26:04Z</time>
      </trkpt>
      <trkpt lat="48.71527" lon="1.96847">
        <ele>110</ele>
        <time>2022-03-29T08:26:11Z</time>
      </trkpt>
      <trkpt lat="48.71518" lon="1.96843">
        <ele>110.7</ele>
        <time>2022-03-29T08:26:19Z</time>
      </trkpt>
      <trkpt lat="48.7151" lon="1.96835">
        <ele>111.3</ele>
        <time>2022-03-29T08:26:26Z</time>
      </trkpt>
      <trkpt lat="48.71501" lon="1.96831">
        <ele>112</ele>
        <time>2022-03-29T08:26:34Z</time>
      </trkpt>
      <trkpt lat="48.71492" lon="1.96826">
        <ele>112.6</ele>
        <time>2022-03-29T08:26:41Z</time>
      </trkpt>
      <trkpt lat="48.71482" lon="1.96822">
        <ele>113.3</ele>
        <time>2022-03-29T08:26:48Z</time>
      </trkpt>
      <trkpt lat="48.71472" lon="1.96819">
        <ele>114</ele>
        <time>2022-03-29T08:26:56Z</time>
      </trkpt>
      <trkpt lat="48.71466" lon="1.96809">
        <ele>114.5</ele>
        <time>2022-03-29T08:27:07Z</time>
      </trkpt>
      <trkpt lat="48.71469" lon="1.96795">
        <ele>114.2</ele>
        <time>2022-03-29T08:27:36Z</time>
      </trkpt>
      <trkpt lat="48.71476" lon="1.96784">
        <ele>113.7</ele>
        <time>2022-03-29T08:27:43Z</time>
      </trkpt>
      <trkpt lat="48.71483" lon="1.96772">
        <ele>113.2</ele>
        <time>2022-03-29T08:27:49Z</time>
      </trkpt>
      <trkpt lat="48.71492" lon="1.96766">
        <ele>112.3</ele>
        <time>2022-03-29T08:27:56Z</time>
      </trkpt>
      <trkpt lat="48.71494" lon="1.96751">
        <ele>111.7</ele>
        <time>2022-03-29T08:28:03Z</time>
      </trkpt>
      <trkpt lat="48.71496" lon="1.96736">
        <ele>111.4</ele>
        <time>2022-03-29T08:28:09Z</time>
      </trkpt>
      <trkpt lat="48.71499" lon="1.96722">
        <ele>111.1</ele>
        <time>2022-03-29T08:28:16Z</time>
      </trkpt>
      <trkpt lat="48.71499" lon="1.96707">
        <ele>111.1</ele>
        <time>2022-03-29T08:28:31Z</time>
      </trkpt>
      <trkpt lat="48.71502" lon="1.96693">
        <ele>110.8</ele>
        <time>2022-03-29T08:28:37Z</time>
      </trkpt>
      <trkpt lat="48.71505" lon="1.96677">
        <ele>110</ele>
        <time>2022-03-29T08:28:41Z</time>
      </trkpt>
      <trkpt lat="48.71504" lon="1.96662">
        <ele>109.7</ele>
        <time>2022-03-29T08:28:46Z</time>
      </trkpt>
      <trkpt lat="48.71504" lon="1.96677">
        <ele>110.1</ele>
        <time>2022-03-29T08:29:06Z</time>
      </trkpt>
      <trkpt lat="48.71504" lon="1.96692">
        <ele>110.6</ele>
        <time>2022-03-29T08:29:09Z</time>
      </trkpt>
      <trkpt lat="48.71502" lon="1.96707">
        <ele>110.9</ele>
        <time>2022-03-29T08:29:13Z</time>
      </trkpt>
      <trkpt lat="48.71495" lon="1.96717">
        <ele>111.3</ele>
        <time>2022-03-29T08:29:21Z</time>
      </trkpt>
      <trkpt lat="48.71487" lon="1.96712">
        <ele>111.9</ele>
        <time>2022-03-29T08:29:29Z</time>
      </trkpt>
      <trkpt lat="48.71478" lon="1.96705">
        <ele>112.6</ele>
        <time>2022-03-29T08:29:37Z</time>
      </trkpt>
      <trkpt lat="48.71469" lon="1.96699">
        <ele>113.2</ele>
        <time>2022-03-29T08:29:47Z</time>
      </trkpt>
      <trkpt lat="48.71463" lon="1.96687">
        <ele>113.7</ele>
        <time>2022-03-29T08:29:56Z</time>
      </trkpt>
      <trkpt lat="48.71454" lon="1.9668">
        <ele>114.3</ele>
        <time>2022-03-29T08:30:03Z</time>
      </trkpt>
      <trkpt lat="48.71445" lon="1.96673">
        <ele>115</ele>
        <time>2022-03-29T08:30:09Z</time>
      </trkpt>
      <trkpt lat="48.71437" lon="1.96665">
        <ele>115.8</ele>
        <time>2022-03-29T08:30:16Z</time>
      </trkpt>
      <trkpt lat="48.71428" lon="1.96659">
        <ele>116.6</ele>
        <time>2022-03-29T08:30:24Z</time>
      </trkpt>
      <trkpt lat="48.7142" lon="1.96649">
        <ele>117.1</ele>
        <time>2022-03-29T08:30:30Z</time>
      </trkpt>
      <trkpt lat="48.71412" lon="1.96641">
        <ele>117.7</ele>
        <time>2022-03-29T08:30:36Z</time>
      </trkpt>
      <trkpt lat="48.71404" lon="1.96636">
        <ele>118.8</ele>
        <time>2022-03-29T08:30:42Z</time>
      </trkpt>
      <trkpt lat="48.71395" lon="1.96628">
        <ele>119.8</ele>
        <time>2022-03-29T08:30:50Z</time>
      </trkpt>
      <trkpt lat="48.71388" lon="1.96619">
        <ele>120.5</ele>
        <time>2022-03-29T08:30:58Z</time>
      </trkpt>
      <trkpt lat="48.7138" lon="1.96611">
        <ele>121.7</ele>
        <time>2022-03-29T08:31:05Z</time>
      </trkpt>
      <trkpt lat="48.71372" lon="1.96602">
        <ele>122.6</ele>
        <time>2022-03-29T08:31:13Z</time>
      </trkpt>
      <trkpt lat="48.71363" lon="1.96595">
        <ele>123.6</ele>
        <time>2022-03-29T08:31:21Z</time>
      </trkpt>
      <trkpt lat="48.71355" lon="1.9659">
        <ele>124.8</ele>
        <time>2022-03-29T08:31:29Z</time>
      </trkpt>
      <trkpt lat="48.71349" lon="1.96579">
        <ele>125.4</ele>
        <time>2022-03-29T08:31:36Z</time>
      </trkpt>
      <trkpt lat="48.71343" lon="1.96569">
        <ele>125.9</ele>
        <time>2022-03-29T08:31:43Z</time>
      </trkpt>
      <trkpt lat="48.71334" lon="1.96562">
        <ele>127.3</ele>
        <time>2022-03-29T08:31:52Z</time>
      </trkpt>
      <trkpt lat="48.71326" lon="1.96555">
        <ele>128.9</ele>
        <time>2022-03-29T08:31:58Z</time>
      </trkpt>
      <trkpt lat="48.71317" lon="1.96553">
        <ele>131</ele>
        <time>2022-03-29T08:32:06Z</time>
      </trkpt>
      <trkpt lat="48.71309" lon="1.96543">
        <ele>132.2</ele>
        <time>2022-03-29T08:32:15Z</time>
      </trkpt>
      <trkpt lat="48.71302" lon="1.96534">
        <ele>133.5</ele>
        <time>2022-03-29T08:32:23Z</time>
      </trkpt>
      <trkpt lat="48.71301" lon="1.9652">
        <ele>132.8</ele>
        <time>2022-03-29T08:32:35Z</time>
      </trkpt>
      <trkpt lat="48.71295" lon="1.96509">
        <ele>133.9</ele>
        <time>2022-03-29T08:32:51Z</time>
      </trkpt>
      <trkpt lat="48.71286" lon="1.96504">
        <ele>136.5</ele>
        <time>2022-03-29T08:33:00Z</time>
      </trkpt>
      <trkpt lat="48.71278" lon="1.96499">
        <ele>138.8</ele>
        <time>2022-03-29T08:33:09Z</time>
      </trkpt>
      <trkpt lat="48.7127" lon="1.9649">
        <ele>139.8</ele>
        <time>2022-03-29T08:33:18Z</time>
      </trkpt>
      <trkpt lat="48.71261" lon="1.96484">
        <ele>141.6</ele>
        <time>2022-03-29T08:33:25Z</time>
      </trkpt>
      <trkpt lat="48.71253" lon="1.96476">
        <ele>143.3</ele>
        <time>2022-03-29T08:33:32Z</time>
      </trkpt>
      <trkpt lat="48.71246" lon="1.96466">
        <ele>144.6</ele>
        <time>2022-03-29T08:33:40Z</time>
      </trkpt>
      <trkpt lat="48.7124" lon="1.96455">
        <ele>145.3</ele>
        <time>2022-03-29T08:33:47Z</time>
      </trkpt>
      <trkpt lat="48.71234" lon="1.96444">
        <ele>146.7</ele>
        <time>2022-03-29T08:33:54Z</time>
      </trkpt>
      <trkpt lat="48.71227" lon="1.96431">
        <ele>148</ele>
        <time>2022-03-29T08:34:00Z</time>
      </trkpt>
      <trkpt lat="48.71221" lon="1.9642">
        <ele>149.2</ele>
        <time>2022-03-29T08:34:09Z</time>
      </trkpt>
      <trkpt lat="48.71215" lon="1.96409">
        <ele>150.4</ele>
        <time>2022-03-29T08:34:17Z</time>
      </trkpt>
      <trkpt lat="48.71206" lon="1.96402">
        <ele>151.9</ele>
        <time>2022-03-29T08:34:25Z</time>
      </trkpt>
      <trkpt lat="48.71199" lon="1.96393">
        <ele>153.1</ele>
        <time>2022-03-29T08:34:34Z</time>
      </trkpt>
      <trkpt lat="48.7119" lon="1.96386">
        <ele>154.4</ele>
        <time>2022-03-29T08:34:43Z</time>
      </trkpt>
      <trkpt lat="48.71182" lon="1.96378">
        <ele>155.1</ele>
        <time>2022-03-29T08:34:51Z</time>
      </trkpt>
      <trkpt lat="48.71173" lon="1.96374">
        <ele>155.9</ele>
        <time>2022-03-29T08:34:59Z</time>
      </trkpt>
      <trkpt lat="48.71164" lon="1.96371">
        <ele>156.6</ele>
        <time>2022-03-29T08:35:07Z</time>
      </trkpt>
      <trkpt lat="48.71156" lon="1.96363">
        <ele>156.8</ele>
        <time>2022-03-29T08:35:16Z</time>
      </trkpt>
      <trkpt lat="48.71147" lon="1.96357">
        <ele>157.4</ele>
        <time>2022-03-29T08:35:25Z</time>
      </trkpt>
      <trkpt lat="48.71139" lon="1.96351">
        <ele>158</ele>
        <time>2022-03-29T08:35:33Z</time>
      </trkpt>
      <trkpt lat="48.7113" lon="1.96347">
        <ele>158.3</ele>
        <time>2022-03-29T08:35:41Z</time>
      </trkpt>
      <trkpt lat="48.7112" lon="1.96341">
        <ele>158.7</ele>
        <time>2022-03-29T08:35:59Z</time>
      </trkpt>
      <trkpt lat="48.71112" lon="1.96335">
        <ele>159</ele>
        <time>2022-03-29T08:36:07Z</time>
      </trkpt>
      <trkpt lat="48.71103" lon="1.96329">
        <ele>159.3</ele>
        <time>2022-03-29T08:36:14Z</time>
      </trkpt>
      <trkpt lat="48.71095" lon="1.96322">
        <ele>159.6</ele>
        <time>2022-03-29T08:36:22Z</time>
      </trkpt>
      <trkpt lat="48.71086" lon="1.96314">
        <ele>159.9</ele>
        <time>2022-03-29T08:36:30Z</time>
      </trkpt>
      <trkpt lat="48.71077" lon="1.96306">
        <ele>160</ele>
        <time>2022-03-29T08:36:38Z</time>
      </trkpt>
      <trkpt lat="48.71068" lon="1.96298">
        <ele>159.9</ele>
        <time>2022-03-29T08:36:46Z</time>
      </trkpt>
      <trkpt lat="48.7106" lon="1.96292">
        <ele>159.9</ele>
        <time>2022-03-29T08:36:53Z</time>
      </trkpt>
      <trkpt lat="48.71052" lon="1.96284">
        <ele>160.1</ele>
        <time>2022-03-29T08:37:00Z</time>
      </trkpt>
      <trkpt lat="48.71043" lon="1.96276">
        <ele>160.4</ele>
        <time>2022-03-29T08:37:07Z</time>
      </trkpt>
      <trkpt lat="48.71034" lon="1.96269">
        <ele>160.5</ele>
        <time>2022-03-29T08:37:14Z</time>
      </trkpt>
      <trkpt lat="48.71026" lon="1.96261">
        <ele>160.5</ele>
        <time>2022-03-29T08:37:21Z</time>
      </trkpt>
      <trkpt lat="48.71017" lon="1.96254">
        <ele>160.5</ele>
        <time>2022-03-29T08:37:28Z</time>
      </trkpt>
      <trkpt lat="48.71008" lon="1.96247">
        <ele>160.7</ele>
        <time>2022-03-29T08:37:35Z</time>
      </trkpt>
      <trkpt lat="48.70999" lon="1.96241">
        <ele>161</ele>
        <time>2022-03-29T08:37:42Z</time>
      </trkpt>
      <trkpt lat="48.70991" lon="1.96233">
        <ele>161.3</ele>
        <time>2022-03-29T08:37:49Z</time>
      </trkpt>
      <trkpt lat="48.70983" lon="1.96227">
        <ele>161.6</ele>
        <time>2022-03-29T08:37:56Z</time>
      </trkpt>
      <trkpt lat="48.70974" lon="1.9622">
        <ele>161.9</ele>
        <time>2022-03-29T08:38:03Z</time>
      </trkpt>
      <trkpt lat="48.70966" lon="1.96212">
        <ele>162.2</ele>
        <time>2022-03-29T08:38:10Z</time>
      </trkpt>
      <trkpt lat="48.70958" lon="1.96205">
        <ele>162.5</ele>
        <time>2022-03-29T08:38:17Z</time>
      </trkpt>
      <trkpt lat="48.70949" lon="1.96198">
        <ele>162.8</ele>
        <time>2022-03-29T08:38:24Z</time>
      </trkpt>
      <trkpt lat="48.70941" lon="1.96191">
        <ele>163</ele>
        <time>2022-03-29T08:38:31Z</time>
      </trkpt>
      <trkpt lat="48.70932" lon="1.96184">
        <ele>163.2</ele>
        <time>2022-03-29T08:38:38Z</time>
      </trkpt>
      <trkpt lat="48.70923" lon="1.96176">
        <ele>163.5</ele>
        <time>2022-03-29T08:38:45Z</time>
      </trkpt>
      <trkpt lat="48.70914" lon="1.96168">
        <ele>163.9</ele>
        <time>2022-03-29T08:38:52Z</time>
      </trkpt>
      <trkpt lat="48.70906" lon="1.96161">
        <ele>164</ele>
        <time>2022-03-29T08:38:59Z</time>
      </trkpt>
      <trkpt lat="48.70898" lon="1.96153">
        <ele>164.2</ele>
        <time>2022-03-29T08:39:07Z</time>
      </trkpt>
      <trkpt lat="48.70894" lon="1.96141">
        <ele>164.6</ele>
        <time>2022-03-29T08:39:18Z</time>
      </trkpt>
      <trkpt lat="48.70892" lon="1.96127">
        <ele>164.8</ele>
        <time>2022-03-29T08:39:27Z</time>
      </trkpt>
      <trkpt lat="48.70884" lon="1.96118">
        <ele>165</ele>
        <time>2022-03-29T08:39:38Z</time>
      </trkpt>
      <trkpt lat="48.70876" lon="1.96111">
        <ele>165</ele>
        <time>2022-03-29T08:39:47Z</time>
      </trkpt>
      <trkpt lat="48.70868" lon="1.96104">
        <ele>165</ele>
        <time>2022-03-29T08:39:57Z</time>
      </trkpt>
      <trkpt lat="48.7086" lon="1.96094">
        <ele>165</ele>
        <time>2022-03-29T08:40:06Z</time>
      </trkpt>
      <trkpt lat="48.70852" lon="1.96085">
        <ele>165.3</ele>
        <time>2022-03-29T08:40:14Z</time>
      </trkpt>
      <trkpt lat="48.70844" lon="1.96077">
        <ele>165.6</ele>
        <time>2022-03-29T08:40:23Z</time>
      </trkpt>
      <trkpt lat="48.70837" lon="1.96066">
        <ele>165.9</ele>
        <time>2022-03-29T08:40:31Z</time>
      </trkpt>
      <trkpt lat="48.7083" lon="1.96056">
        <ele>166.1</ele>
        <time>2022-03-29T08:40:39Z</time>
      </trkpt>
      <trkpt lat="48.70824" lon="1.96046">
        <ele>166.3</ele>
        <time>2022-03-29T08:40:46Z</time>
      </trkpt>
      <trkpt lat="48.70816" lon="1.9604">
        <ele>166.6</ele>
        <time>2022-03-29T08:40:59Z</time>
      </trkpt>
      <trkpt lat="48.70809" lon="1.96032">
        <ele>166.9</ele>
        <time>2022-03-29T08:41:08Z</time>
      </trkpt>
      <trkpt lat="48.708" lon="1.96024">
        <ele>167.2</ele>
        <time>2022-03-29T08:41:18Z</time>
      </trkpt>
      <trkpt lat="48.70792" lon="1.96017">
        <ele>167.5</ele>
        <time>2022-03-29T08:41:26Z</time>
      </trkpt>
      <trkpt lat="48.70785" lon="1.96007">
        <ele>167.7</ele>
        <time>2022-03-29T08:41:33Z</time>
      </trkpt>
      <trkpt lat="48.70779" lon="1.95996">
        <ele>168</ele>
        <time>2022-03-29T08:41:40Z</time>
      </trkpt>
      <trkpt lat="48.7077" lon="1.95988">
        <ele>168.3</ele>
        <time>2022-03-29T08:41:48Z</time>
      </trkpt>
      <trkpt lat="48.70764" lon="1.95977">
        <ele>168.5</ele>
        <time>2022-03-29T08:41:56Z</time>
      </trkpt>
      <trkpt lat="48.70757" lon="1.95968">
        <ele>168.8</ele>
        <time>2022-03-29T08:42:04Z</time>
      </trkpt>
      <trkpt lat="48.70749" lon="1.9596">
        <ele>169</ele>
        <time>2022-03-29T08:42:12Z</time>
      </trkpt>
      <trkpt lat="48.70742" lon="1.95953">
        <ele>169.3</ele>
        <time>2022-03-29T08:42:26Z</time>
      </trkpt>
      <trkpt lat="48.70733" lon="1.95951">
        <ele>169.6</ele>
        <time>2022-03-29T08:42:34Z</time>
      </trkpt>
      <trkpt lat="48.70724" lon="1.95944">
        <ele>169.9</ele>
        <time>2022-03-29T08:42:42Z</time>
      </trkpt>
      <trkpt lat="48.70716" lon="1.95935">
        <ele>170</ele>
        <time>2022-03-29T08:42:51Z</time>
      </trkpt>
      <trkpt lat="48.70708" lon="1.95927">
        <ele>170</ele>
        <time>2022-03-29T08:43:00Z</time>
      </trkpt>
      <trkpt lat="48.70704" lon="1.95915">
        <ele>170</ele>
        <time>2022-03-29T08:43:09Z</time>
      </trkpt>
      <trkpt lat="48.70698" lon="1.95903">
        <ele>169.9</ele>
        <time>2022-03-29T08:43:18Z</time>
      </trkpt>
      <trkpt lat="48.70693" lon="1.9589">
        <ele>170</ele>
        <time>2022-03-29T08:43:26Z</time>
      </trkpt>
      <trkpt lat="48.70688" lon="1.95878">
        <ele>170</ele>
        <time>2022-03-29T08:43:34Z</time>
      </trkpt>
      <trkpt lat="48.70684" lon="1.95865">
        <ele>170</ele>
        <time>2022-03-29T08:43:43Z</time>
      </trkpt>
      <trkpt lat="48.70679" lon="1.95852">
        <ele>170</ele>
        <time>2022-03-29T08:43:51Z</time>
      </trkpt>
      <trkpt lat="48.70674" lon="1.9584">
        <ele>170</ele>
        <time>2022-03-29T08:43:58Z</time>
      </trkpt>
      <trkpt lat="48.70668" lon="1.95829">
        <ele>170</ele>
        <time>2022-03-29T08:44:05Z</time>
      </trkpt>
      <trkpt lat="48.70662" lon="1.95817">
        <ele>170.2</ele>
        <time>2022-03-29T08:44:13Z</time>
      </trkpt>
      <trkpt lat="48.70656" lon="1.95807">
        <ele>170.4</ele>
        <time>2022-03-29T08:44:22Z</time>
      </trkpt>
      <trkpt lat="48.70648" lon="1.95797">
        <ele>170.8</ele>
        <time>2022-03-29T08:44:30Z</time>
      </trkpt>
      <trkpt lat="48.7064" lon="1.9579">
        <ele>171</ele>
        <time>2022-03-29T08:44:38Z</time>
      </trkpt>
      <trkpt lat="48.70632" lon="1.95782">
        <ele>171</ele>
        <time>2022-03-29T08:44:45Z</time>
      </trkpt>
      <trkpt lat="48.70624" lon="1.95776">
        <ele>171</ele>
        <time>2022-03-29T08:44:51Z</time>
      </trkpt>
      <trkpt lat="48.70615" lon="1.95771">
        <ele>171</ele>
        <time>2022-03-29T08:44:58Z</time>
      </trkpt>
      <trkpt lat="48.70606" lon="1.95767">
        <ele>171.2</ele>
        <time>2022-03-29T08:45:04Z</time>
      </trkpt>
      <trkpt lat="48.70597" lon="1.95763">
        <ele>171.5</ele>
        <time>2022-03-29T08:45:10Z</time>
      </trkpt>
      <trkpt lat="48.70588" lon="1.95756">
        <ele>171.8</ele>
        <time>2022-03-29T08:45:16Z</time>
      </trkpt>
      <trkpt lat="48.70579" lon="1.9575">
        <ele>171.8</ele>
        <time>2022-03-29T08:45:22Z</time>
      </trkpt>
      <trkpt lat="48.70571" lon="1.95742">
        <ele>171.3</ele>
        <time>2022-03-29T08:45:37Z</time>
      </trkpt>
      <trkpt lat="48.70563" lon="1.9575">
        <ele>171.3</ele>
        <time>2022-03-29T08:45:49Z</time>
      </trkpt>
      <trkpt lat="48.70553" lon="1.95751">
        <ele>170.8</ele>
        <time>2022-03-29T08:46:00Z</time>
      </trkpt>
      <trkpt lat="48.70544" lon="1.95752">
        <ele>169.8</ele>
        <time>2022-03-29T08:46:08Z</time>
      </trkpt>
      <trkpt lat="48.70534" lon="1.95755">
        <ele>168.8</ele>
        <time>2022-03-29T08:46:15Z</time>
      </trkpt>
      <trkpt lat="48.70524" lon="1.95751">
        <ele>167.4</ele>
        <time>2022-03-29T08:46:23Z</time>
      </trkpt>
      <trkpt lat="48.70514" lon="1.95747">
        <ele>166</ele>
        <time>2022-03-29T08:46:31Z</time>
      </trkpt>
      <trkpt lat="48.70505" lon="1.95743">
        <ele>164.6</ele>
        <time>2022-03-29T08:46:37Z</time>
      </trkpt>
      <trkpt lat="48.70496" lon="1.95748">
        <ele>162.6</ele>
        <time>2022-03-29T08:46:45Z</time>
      </trkpt>
      <trkpt lat="48.70486" lon="1.95749">
        <ele>159.6</ele>
        <time>2022-03-29T08:46:51Z</time>
      </trkpt>
      <trkpt lat="48.7048" lon="1.95738">
        <ele>157.5</ele>
        <time>2022-03-29T08:47:00Z</time>
      </trkpt>
      <trkpt lat="48.70472" lon="1.95733">
        <ele>154.9</ele>
        <time>2022-03-29T08:47:10Z</time>
      </trkpt>
      <trkpt lat="48.70462" lon="1.95732">
        <ele>152</ele>
        <time>2022-03-29T08:47:20Z</time>
      </trkpt>
      <trkpt lat="48.70455" lon="1.95721">
        <ele>149.9</ele>
        <time>2022-03-29T08:47:53Z</time>
      </trkpt>
      <trkpt lat="48.70446" lon="1.95716">
        <ele>147.5</ele>
        <time>2022-03-29T08:48:00Z</time>
      </trkpt>
      <trkpt lat="48.70437" lon="1.95709">
        <ele>146.1</ele>
        <time>2022-03-29T08:48:18Z</time>
      </trkpt>
      <trkpt lat="48.70429" lon="1.95706">
        <ele>145.1</ele>
        <time>2022-03-29T08:48:27Z</time>
      </trkpt>
      <trkpt lat="48.7042" lon="1.95708">
        <ele>143.9</ele>
        <time>2022-03-29T08:48:35Z</time>
      </trkpt>
      <trkpt lat="48.7041" lon="1.95709">
        <ele>143.5</ele>
        <time>2022-03-29T08:48:43Z</time>
      </trkpt>
      <trkpt lat="48.704" lon="1.95703">
        <ele>143.7</ele>
        <time>2022-03-29T08:48:50Z</time>
      </trkpt>
      <trkpt lat="48.70391" lon="1.957">
        <ele>143.8</ele>
        <time>2022-03-29T08:48:57Z</time>
      </trkpt>
      <trkpt lat="48.70382" lon="1.95693">
        <ele>145</ele>
        <time>2022-03-29T08:49:05Z</time>
      </trkpt>
      <trkpt lat="48.70373" lon="1.95689">
        <ele>146.5</ele>
        <time>2022-03-29T08:49:13Z</time>
      </trkpt>
      <trkpt lat="48.7037" lon="1.95675">
        <ele>147.2</ele>
        <time>2022-03-29T08:49:48Z</time>
      </trkpt>
      <trkpt lat="48.70368" lon="1.95662">
        <ele>147.9</ele>
        <time>2022-03-29T08:49:56Z</time>
      </trkpt>
      <trkpt lat="48.70366" lon="1.95648">
        <ele>148.2</ele>
        <time>2022-03-29T08:50:04Z</time>
      </trkpt>
      <trkpt lat="48.70364" lon="1.95633">
        <ele>148.4</ele>
        <time>2022-03-29T08:50:12Z</time>
      </trkpt>
      <trkpt lat="48.7036" lon="1.95619">
        <ele>148.5</ele>
        <time>2022-03-29T08:50:21Z</time>
      </trkpt>
      <trkpt lat="48.70356" lon="1.95605">
        <ele>149.1</ele>
        <time>2022-03-29T08:50:28Z</time>
      </trkpt>
      <trkpt lat="48.70351" lon="1.95592">
        <ele>149.9</ele>
        <time>2022-03-29T08:50:35Z</time>
      </trkpt>
      <trkpt lat="48.70346" lon="1.95581">
        <ele>150.6</ele>
        <time>2022-03-29T08:50:50Z</time>
      </trkpt>
      <trkpt lat="48.70341" lon="1.95567">
        <ele>150.8</ele>
        <time>2022-03-29T08:51:02Z</time>
      </trkpt>
      <trkpt lat="48.70336" lon="1.95555">
        <ele>150.7</ele>
        <time>2022-03-29T08:51:08Z</time>
      </trkpt>
      <trkpt lat="48.70331" lon="1.95544">
        <ele>151</ele>
        <time>2022-03-29T08:51:14Z</time>
      </trkpt>
      <trkpt lat="48.70325" lon="1.95533">
        <ele>151.4</ele>
        <time>2022-03-29T08:51:20Z</time>
      </trkpt>
      <trkpt lat="48.70322" lon="1.9552">
        <ele>151.7</ele>
        <time>2022-03-29T08:51:26Z</time>
      </trkpt>
      <trkpt lat="48.70319" lon="1.95506">
        <ele>152.1</ele>
        <time>2022-03-29T08:51:34Z</time>
      </trkpt>
      <trkpt lat="48.70315" lon="1.95493">
        <ele>152.6</ele>
        <time>2022-03-29T08:51:40Z</time>
      </trkpt>
      <trkpt lat="48.70309" lon="1.95482">
        <ele>153</ele>
        <time>2022-03-29T08:51:46Z</time>
      </trkpt>
      <trkpt lat="48.70304" lon="1.9547">
        <ele>153.3</ele>
        <time>2022-03-29T08:51:52Z</time>
      </trkpt>
      <trkpt lat="48.70299" lon="1.95457">
        <ele>154</ele>
        <time>2022-03-29T08:51:59Z</time>
      </trkpt>
      <trkpt lat="48.70294" lon="1.95443">
        <ele>154.6</ele>
        <time>2022-03-29T08:52:06Z</time>
      </trkpt>
      <trkpt lat="48.7029" lon="1.95431">
        <ele>155.3</ele>
        <time>2022-03-29T08:52:13Z</time>
      </trkpt>
      <trkpt lat="48.70285" lon="1.95417">
        <ele>156</ele>
        <time>2022-03-29T08:52:20Z</time>
      </trkpt>
      <trkpt lat="48.70279" lon="1.95405">
        <ele>156.4</ele>
        <time>2022-03-29T08:52:27Z</time>
      </trkpt>
      <trkpt lat="48.70274" lon="1.95393">
        <ele>156.5</ele>
        <time>2022-03-29T08:52:34Z</time>
      </trkpt>
      <trkpt lat="48.70266" lon="1.95395">
        <ele>157.6</ele>
        <time>2022-03-29T08:52:46Z</time>
      </trkpt>
      <trkpt lat="48.70263" lon="1.9541">
        <ele>158.4</ele>
        <time>2022-03-29T08:52:53Z</time>
      </trkpt>
      <trkpt lat="48.7026" lon="1.95425">
        <ele>159.1</ele>
        <time>2022-03-29T08:53:00Z</time>
      </trkpt>
      <trkpt lat="48.70256" lon="1.95439">
        <ele>160</ele>
        <time>2022-03-29T08:53:07Z</time>
      </trkpt>
      <trkpt lat="48.70251" lon="1.95452">
        <ele>160.9</ele>
        <time>2022-03-29T08:53:14Z</time>
      </trkpt>
      <trkpt lat="48.70245" lon="1.95465">
        <ele>161.5</ele>
        <time>2022-03-29T08:53:21Z</time>
      </trkpt>
      <trkpt lat="48.70239" lon="1.95477">
        <ele>162.3</ele>
        <time>2022-03-29T08:53:27Z</time>
      </trkpt>
      <trkpt lat="48.70235" lon="1.9549">
        <ele>162.9</ele>
        <time>2022-03-29T08:53:33Z</time>
      </trkpt>
      <trkpt lat="48.7023" lon="1.95502">
        <ele>163.4</ele>
        <time>2022-03-29T08:53:40Z</time>
      </trkpt>
      <trkpt lat="48.70225" lon="1.95514">
        <ele>163.8</ele>
        <time>2022-03-29T08:53:47Z</time>
      </trkpt>
      <trkpt lat="48.70219" lon="1.95526">
        <ele>164.2</ele>
        <time>2022-03-29T08:53:55Z</time>
      </trkpt>
      <trkpt lat="48.70213" lon="1.95538">
        <ele>164.6</ele>
        <time>2022-03-29T08:54:02Z</time>
      </trkpt>
      <trkpt lat="48.70207" lon="1.95551">
        <ele>164.6</ele>
        <time>2022-03-29T08:54:13Z</time>
      </trkpt>
      <trkpt lat="48.70202" lon="1.95562">
        <ele>164.7</ele>
        <time>2022-03-29T08:54:20Z</time>
      </trkpt>
      <trkpt lat="48.70196" lon="1.95574">
        <ele>164.9</ele>
        <time>2022-03-29T08:54:27Z</time>
      </trkpt>
      <trkpt lat="48.70191" lon="1.95585">
        <ele>165</ele>
        <time>2022-03-29T08:54:34Z</time>
      </trkpt>
      <trkpt lat="48.70186" lon="1.95597">
        <ele>164.9</ele>
        <time>2022-03-29T08:54:41Z</time>
      </trkpt>
      <trkpt lat="48.7018" lon="1.9561">
        <ele>165</ele>
        <time>2022-03-29T08:54:49Z</time>
      </trkpt>
      <trkpt lat="48.70175" lon="1.95622">
        <ele>165.1</ele>
        <time>2022-03-29T08:54:56Z</time>
      </trkpt>
      <trkpt lat="48.7017" lon="1.95633">
        <ele>165.1</ele>
        <time>2022-03-29T08:55:03Z</time>
      </trkpt>
      <trkpt lat="48.70164" lon="1.95646">
        <ele>165.1</ele>
        <time>2022-03-29T08:55:10Z</time>
      </trkpt>
      <trkpt lat="48.70159" lon="1.95659">
        <ele>165.3</ele>
        <time>2022-03-29T08:55:17Z</time>
      </trkpt>
      <trkpt lat="48.70153" lon="1.95669">
        <ele>165.4</ele>
        <time>2022-03-29T08:55:24Z</time>
      </trkpt>
      <trkpt lat="48.70148" lon="1.95682">
        <ele>165.5</ele>
        <time>2022-03-29T08:55:31Z</time>
      </trkpt>
      <trkpt lat="48.70142" lon="1.95695">
        <ele>165.7</ele>
        <time>2022-03-29T08:55:38Z</time>
      </trkpt>
      <trkpt lat="48.70137" lon="1.95707">
        <ele>165.6</ele>
        <time>2022-03-29T08:55:45Z</time>
      </trkpt>
      <trkpt lat="48.70132" lon="1.95719">
        <ele>165.3</ele>
        <time>2022-03-29T08:55:51Z</time>
      </trkpt>
      <trkpt lat="48.70126" lon="1.95732">
        <ele>165.3</ele>
        <time>2022-03-29T08:55:57Z</time>
      </trkpt>
      <trkpt lat="48.70121" lon="1.95745">
        <ele>165.3</ele>
        <time>2022-03-29T08:56:04Z</time>
      </trkpt>
      <trkpt lat="48.70116" lon="1.95757">
        <ele>165.4</ele>
        <time>2022-03-29T08:56:11Z</time>
      </trkpt>
      <trkpt lat="48.70111" lon="1.9577">
        <ele>165.3</ele>
        <time>2022-03-29T08:56:19Z</time>
      </trkpt>
      <trkpt lat="48.70106" lon="1.95783">
        <ele>165</ele>
        <time>2022-03-29T08:56:27Z</time>
      </trkpt>
      <trkpt lat="48.701" lon="1.95795">
        <ele>164.8</ele>
        <time>2022-03-29T08:56:35Z</time>
      </trkpt>
      <trkpt lat="48.70095" lon="1.95807">
        <ele>164.6</ele>
        <time>2022-03-29T08:56:48Z</time>
      </trkpt>
      <trkpt lat="48.70091" lon="1.95821">
        <ele>164.6</ele>
        <time>2022-03-29T08:57:24Z</time>
      </trkpt>
      <trkpt lat="48.70085" lon="1.95832">
        <ele>164.9</ele>
        <time>2022-03-29T08:57:31Z</time>
      </trkpt>
      <trkpt lat="48.7008" lon="1.95843">
        <ele>164.8</ele>
        <time>2022-03-29T08:57:38Z</time>
      </trkpt>
      <trkpt lat="48.70074" lon="1.95856">
        <ele>164.8</ele>
        <time>2022-03-29T08:57:45Z</time>
      </trkpt>
      <trkpt lat="48.70069" lon="1.95868">
        <ele>164.9</ele>
        <time>2022-03-29T08:57:52Z</time>
      </trkpt>
      <trkpt lat="48.70063" lon="1.95879">
        <ele>165.3</ele>
        <time>2022-03-29T08:57:58Z</time>
      </trkpt>
      <trkpt lat="48.70058" lon="1.95892">
        <ele>165.6</ele>
        <time>2022-03-29T08:58:05Z</time>
      </trkpt>
      <trkpt lat="48.70053" lon="1.95904">
        <ele>165.6</ele>
        <time>2022-03-29T08:58:11Z</time>
      </trkpt>
      <trkpt lat="48.70048" lon="1.95916">
        <ele>165.3</ele>
        <time>2022-03-29T08:58:18Z</time>
      </trkpt>
      <trkpt lat="48.70042" lon="1.95928">
        <ele>165.3</ele>
        <time>2022-03-29T08:58:26Z</time>
      </trkpt>
      <trkpt lat="48.70036" lon="1.9594">
        <ele>165.5</ele>
        <time>2022-03-29T08:58:34Z</time>
      </trkpt>
      <trkpt lat="48.70031" lon="1.95953">
        <ele>165.5</ele>
        <time>2022-03-29T08:58:41Z</time>
      </trkpt>
      <trkpt lat="48.70025" lon="1.95966">
        <ele>165.4</ele>
        <time>2022-03-29T08:58:48Z</time>
      </trkpt>
      <trkpt lat="48.7002" lon="1.95977">
        <ele>165.6</ele>
        <time>2022-03-29T08:58:58Z</time>
      </trkpt>
      <trkpt lat="48.70013" lon="1.95989">
        <ele>166</ele>
        <time>2022-03-29T08:59:05Z</time>
      </trkpt>
      <trkpt lat="48.70008" lon="1.96">
        <ele>166.4</ele>
        <time>2022-03-29T08:59:13Z</time>
      </trkpt>
      <trkpt lat="48.70003" lon="1.96012">
        <ele>166.3</ele>
        <time>2022-03-29T08:59:22Z</time>
      </trkpt>
      <trkpt lat="48.69998" lon="1.96023">
        <ele>166.2</ele>
        <time>2022-03-29T08:59:31Z</time>
      </trkpt>
      <trkpt lat="48.69993" lon="1.96036">
        <ele>166.3</ele>
        <time>2022-03-29T08:59:39Z</time>
      </trkpt>
      <trkpt lat="48.69987" lon="1.96048">
        <ele>166.5</ele>
        <time>2022-03-29T08:59:46Z</time>
      </trkpt>
      <trkpt lat="48.69982" lon="1.96061">
        <ele>166.6</ele>
        <time>2022-03-29T08:59:54Z</time>
      </trkpt>
      <trkpt lat="48.69976" lon="1.96074">
        <ele>166.7</ele>
        <time>2022-03-29T09:00:01Z</time>
      </trkpt>
      <trkpt lat="48.6997" lon="1.96085">
        <ele>167.1</ele>
        <time>2022-03-29T09:00:08Z</time>
      </trkpt>
      <trkpt lat="48.69964" lon="1.96098">
        <ele>167.3</ele>
        <time>2022-03-29T09:00:16Z</time>
      </trkpt>
      <trkpt lat="48.69958" lon="1.9611">
        <ele>167.5</ele>
        <time>2022-03-29T09:00:24Z</time>
      </trkpt>
      <trkpt lat="48.69952" lon="1.96121">
        <ele>167.6</ele>
        <time>2022-03-29T09:00:31Z</time>
      </trkpt>
      <trkpt lat="48.69947" lon="1.96135">
        <ele>167.8</ele>
        <time>2022-03-29T09:00:38Z</time>
      </trkpt>
      <trkpt lat="48.69942" lon="1.96148">
        <ele>168.1</ele>
        <time>2022-03-29T09:00:45Z</time>
      </trkpt>
      <trkpt lat="48.69937" lon="1.96162">
        <ele>168.3</ele>
        <time>2022-03-29T09:00:52Z</time>
      </trkpt>
      <trkpt lat="48.69931" lon="1.96174">
        <ele>168.3</ele>
        <time>2022-03-29T09:00:59Z</time>
      </trkpt>
      <trkpt lat="48.69926" lon="1.96186">
        <ele>168.4</ele>
        <time>2022-03-29T09:01:06Z</time>
      </trkpt>
      <trkpt lat="48.6992" lon="1.96199">
        <ele>168.6</ele>
        <time>2022-03-29T09:01:13Z</time>
      </trkpt>
      <trkpt lat="48.69914" lon="1.96212">
        <ele>168.4</ele>
        <time>2022-03-29T09:01:21Z</time>
      </trkpt>
      <trkpt lat="48.69909" lon="1.96225">
        <ele>168.3</ele>
        <time>2022-03-29T09:01:28Z</time>
      </trkpt>
      <trkpt lat="48.69903" lon="1.96236">
        <ele>168.5</ele>
        <time>2022-03-29T09:01:34Z</time>
      </trkpt>
      <trkpt lat="48.69897" lon="1.96248">
        <ele>168.7</ele>
        <time>2022-03-29T09:01:41Z</time>
      </trkpt>
      <trkpt lat="48.69891" lon="1.9626">
        <ele>168.9</ele>
        <time>2022-03-29T09:01:47Z</time>
      </trkpt>
      <trkpt lat="48.69886" lon="1.96271">
        <ele>169.1</ele>
        <time>2022-03-29T09:01:54Z</time>
      </trkpt>
      <trkpt lat="48.69881" lon="1.96283">
        <ele>169.3</ele>
        <time>2022-03-29T09:01:59Z</time>
      </trkpt>
      <trkpt lat="48.69876" lon="1.96297">
        <ele>169.5</ele>
        <time>2022-03-29T09:02:06Z</time>
      </trkpt>
      <trkpt lat="48.69871" lon="1.96309">
        <ele>169.5</ele>
        <time>2022-03-29T09:02:12Z</time>
      </trkpt>
      <trkpt lat="48.69867" lon="1.96321">
        <ele>169.2</ele>
        <time>2022-03-29T09:02:19Z</time>
      </trkpt>
      <trkpt lat="48.69862" lon="1.96334">
        <ele>168.9</ele>
        <time>2022-03-29T09:02:26Z</time>
      </trkpt>
      <trkpt lat="48.69857" lon="1.96347">
        <ele>168.7</ele>
        <time>2022-03-29T09:02:34Z</time>
      </trkpt>
      <trkpt lat="48.69853" lon="1.96361">
        <ele>168.6</ele>
        <time>2022-03-29T09:02:47Z</time>
      </trkpt>
      <trkpt lat="48.69845" lon="1.9637">
        <ele>169</ele>
        <time>2022-03-29T09:02:57Z</time>
      </trkpt>
      <trkpt lat="48.69838" lon="1.96379">
        <ele>169.1</ele>
        <time>2022-03-29T09:03:09Z</time>
      </trkpt>
      <trkpt lat="48.69832" lon="1.9639">
        <ele>169</ele>
        <time>2022-03-29T09:03:18Z</time>
      </trkpt>
      <trkpt lat="48.69831" lon="1.96404">
        <ele>169.1</ele>
        <time>2022-03-29T09:03:28Z</time>
      </trkpt>
      <trkpt lat="48.69824" lon="1.96414">
        <ele>169.3</ele>
        <time>2022-03-29T09:03:45Z</time>
      </trkpt>
      <trkpt lat="48.69817" lon="1.96421">
        <ele>169.5</ele>
        <time>2022-03-29T09:06:50Z</time>
      </trkpt>
      <trkpt lat="48.69825" lon="1.96426">
        <ele>169.2</ele>
        <time>2022-03-29T09:07:18Z</time>
      </trkpt>
      <trkpt lat="48.69834" lon="1.96429">
        <ele>169</ele>
        <time>2022-03-29T09:07:25Z</time>
      </trkpt>
      <trkpt lat="48.69843" lon="1.96426">
        <ele>168.5</ele>
        <time>2022-03-29T09:07:30Z</time>
      </trkpt>
      <trkpt lat="48.69852" lon="1.9642">
        <ele>168.3</ele>
        <time>2022-03-29T09:07:36Z</time>
      </trkpt>
      <trkpt lat="48.69862" lon="1.96419">
        <ele>167.9</ele>
        <time>2022-03-29T09:07:43Z</time>
      </trkpt>
      <trkpt lat="48.69871" lon="1.96421">
        <ele>167.5</ele>
        <time>2022-03-29T09:07:52Z</time>
      </trkpt>
      <trkpt lat="48.69882" lon="1.96422">
        <ele>167.1</ele>
        <time>2022-03-29T09:08:01Z</time>
      </trkpt>
      <trkpt lat="48.6989" lon="1.96425">
        <ele>166.6</ele>
        <time>2022-03-29T09:08:09Z</time>
      </trkpt>
      <trkpt lat="48.699" lon="1.96424">
        <ele>166</ele>
        <time>2022-03-29T09:08:14Z</time>
      </trkpt>
      <trkpt lat="48.69909" lon="1.96424">
        <ele>165.3</ele>
        <time>2022-03-29T09:08:19Z</time>
      </trkpt>
      <trkpt lat="48.69918" lon="1.96424">
        <ele>164.6</ele>
        <time>2022-03-29T09:08:25Z</time>
      </trkpt>
      <trkpt lat="48.69927" lon="1.96426">
        <ele>164</ele>
        <time>2022-03-29T09:08:32Z</time>
      </trkpt>
      <trkpt lat="48.69935" lon="1.96436">
        <ele>163.4</ele>
        <time>2022-03-29T09:08:39Z</time>
      </trkpt>
      <trkpt lat="48.69943" lon="1.96444">
        <ele>163.1</ele>
        <time>2022-03-29T09:08:46Z</time>
      </trkpt>
      <trkpt lat="48.69952" lon="1.96449">
        <ele>162.3</ele>
        <time>2022-03-29T09:08:51Z</time>
      </trkpt>
      <trkpt lat="48.69962" lon="1.96455">
        <ele>161.4</ele>
        <time>2022-03-29T09:08:59Z</time>
      </trkpt>
      <trkpt lat="48.6997" lon="1.9646">
        <ele>160.6</ele>
        <time>2022-03-29T09:09:07Z</time>
      </trkpt>
      <trkpt lat="48.6998" lon="1.96464">
        <ele>159.5</ele>
        <time>2022-03-29T09:09:14Z</time>
      </trkpt>
      <trkpt lat="48.69989" lon="1.96466">
        <ele>158.4</ele>
        <time>2022-03-29T09:09:19Z</time>
      </trkpt>
      <trkpt lat="48.69997" lon="1.96473">
        <ele>157.3</ele>
        <time>2022-03-29T09:09:28Z</time>
      </trkpt>
      <trkpt lat="48.70006" lon="1.96479">
        <ele>156.1</ele>
        <time>2022-03-29T09:09:36Z</time>
      </trkpt>
      <trkpt lat="48.70016" lon="1.96481">
        <ele>154.9</ele>
        <time>2022-03-29T09:09:44Z</time>
      </trkpt>
      <trkpt lat="48.70026" lon="1.96483">
        <ele>153.8</ele>
        <time>2022-03-29T09:09:50Z</time>
      </trkpt>
      <trkpt lat="48.70035" lon="1.96484">
        <ele>152.5</ele>
        <time>2022-03-29T09:09:55Z</time>
      </trkpt>
      <trkpt lat="48.70045" lon="1.96488">
        <ele>150.9</ele>
        <time>2022-03-29T09:10:02Z</time>
      </trkpt>
      <trkpt lat="48.70055" lon="1.96491">
        <ele>149.5</ele>
        <time>2022-03-29T09:10:09Z</time>
      </trkpt>
      <trkpt lat="48.70065" lon="1.96492">
        <ele>148.2</ele>
        <time>2022-03-29T09:10:15Z</time>
      </trkpt>
      <trkpt lat="48.70074" lon="1.96496">
        <ele>147</ele>
        <time>2022-03-29T09:10:21Z</time>
      </trkpt>
      <trkpt lat="48.70073" lon="1.96511">
        <ele>146.3</ele>
        <time>2022-03-29T09:10:32Z</time>
      </trkpt>
      <trkpt lat="48.70073" lon="1.96525">
        <ele>145.3</ele>
        <time>2022-03-29T09:10:43Z</time>
      </trkpt>
      <trkpt lat="48.70067" lon="1.96537">
        <ele>144.9</ele>
        <time>2022-03-29T09:10:50Z</time>
      </trkpt>
      <trkpt lat="48.7006" lon="1.96549">
        <ele>144.4</ele>
        <time>2022-03-29T09:10:59Z</time>
      </trkpt>
      <trkpt lat="48.70053" lon="1.96558">
        <ele>143.8</ele>
        <time>2022-03-29T09:11:08Z</time>
      </trkpt>
      <trkpt lat="48.70045" lon="1.96568">
        <ele>143</ele>
        <time>2022-03-29T09:11:15Z</time>
      </trkpt>
      <trkpt lat="48.70038" lon="1.9658">
        <ele>142</ele>
        <time>2022-03-29T09:11:22Z</time>
      </trkpt>
      <trkpt lat="48.70034" lon="1.96592">
        <ele>140.6</ele>
        <time>2022-03-29T09:11:30Z</time>
      </trkpt>
      <trkpt lat="48.70028" lon="1.96605">
        <ele>139.1</ele>
        <time>2022-03-29T09:11:39Z</time>
      </trkpt>
      <trkpt lat="48.70024" lon="1.96618">
        <ele>137.9</ele>
        <time>2022-03-29T09:11:46Z</time>
      </trkpt>
      <trkpt lat="48.7002" lon="1.96631">
        <ele>137.2</ele>
        <time>2022-03-29T09:11:53Z</time>
      </trkpt>
      <trkpt lat="48.70015" lon="1.96644">
        <ele>137.1</ele>
        <time>2022-03-29T09:12:02Z</time>
      </trkpt>
      <trkpt lat="48.70012" lon="1.96658">
        <ele>136.7</ele>
        <time>2022-03-29T09:12:09Z</time>
      </trkpt>
      <trkpt lat="48.70007" lon="1.9667">
        <ele>137.3</ele>
        <time>2022-03-29T09:12:16Z</time>
      </trkpt>
      <trkpt lat="48.7" lon="1.96679">
        <ele>138.6</ele>
        <time>2022-03-29T09:12:22Z</time>
      </trkpt>
      <trkpt lat="48.69992" lon="1.96689">
        <ele>139.8</ele>
        <time>2022-03-29T09:12:30Z</time>
      </trkpt>
      <trkpt lat="48.6999" lon="1.96702">
        <ele>138.7</ele>
        <time>2022-03-29T09:12:37Z</time>
      </trkpt>
      <trkpt lat="48.6999" lon="1.96717">
        <ele>136.1</ele>
        <time>2022-03-29T09:12:45Z</time>
      </trkpt>
      <trkpt lat="48.69993" lon="1.96731">
        <ele>133.5</ele>
        <time>2022-03-29T09:12:52Z</time>
      </trkpt>
      <trkpt lat="48.69999" lon="1.96743">
        <ele>130.9</ele>
        <time>2022-03-29T09:12:58Z</time>
      </trkpt>
      <trkpt lat="48.70009" lon="1.96747">
        <ele>129.3</ele>
        <time>2022-03-29T09:13:33Z</time>
      </trkpt>
      <trkpt lat="48.7002" lon="1.96748">
        <ele>127.9</ele>
        <time>2022-03-29T09:13:39Z</time>
      </trkpt>
      <trkpt lat="48.7003" lon="1.96752">
        <ele>126.8</ele>
        <time>2022-03-29T09:13:45Z</time>
      </trkpt>
      <trkpt lat="48.70039" lon="1.96753">
        <ele>125.9</ele>
        <time>2022-03-29T09:13:50Z</time>
      </trkpt>
      <trkpt lat="48.70049" lon="1.96753">
        <ele>124.8</ele>
        <time>2022-03-29T09:13:56Z</time>
      </trkpt>
      <trkpt lat="48.70059" lon="1.96754">
        <ele>124</ele>
        <time>2022-03-29T09:14:03Z</time>
      </trkpt>
      <trkpt lat="48.70069" lon="1.96752">
        <ele>123.2</ele>
        <time>2022-03-29T09:14:09Z</time>
      </trkpt>
      <trkpt lat="48.70079" lon="1.96749">
        <ele>122.3</ele>
        <time>2022-03-29T09:14:16Z</time>
      </trkpt>
      <trkpt lat="48.70089" lon="1.96746">
        <ele>122</ele>
        <time>2022-03-29T09:14:24Z</time>
      </trkpt>
      <trkpt lat="48.70098" lon="1.96749">
        <ele>122</ele>
        <time>2022-03-29T09:14:33Z</time>
      </trkpt>
      <trkpt lat="48.70106" lon="1.96758">
        <ele>122.3</ele>
        <time>2022-03-29T09:14:43Z</time>
      </trkpt>
      <trkpt lat="48.70116" lon="1.96758">
        <ele>122.3</ele>
        <time>2022-03-29T09:14:51Z</time>
      </trkpt>
      <trkpt lat="48.70125" lon="1.96756">
        <ele>122.3</ele>
        <time>2022-03-29T09:14:55Z</time>
      </trkpt>
      <trkpt lat="48.70134" lon="1.96755">
        <ele>122.3</ele>
        <time>2022-03-29T09:15:01Z</time>
      </trkpt>
      <trkpt lat="48.70143" lon="1.96751">
        <ele>122</ele>
        <time>2022-03-29T09:15:11Z</time>
      </trkpt>
      <trkpt lat="48.70152" lon="1.96751">
        <ele>122.1</ele>
        <time>2022-03-29T09:15:18Z</time>
      </trkpt>
      <trkpt lat="48.70162" lon="1.96748">
        <ele>121.9</ele>
        <time>2022-03-29T09:15:25Z</time>
      </trkpt>
      <trkpt lat="48.70173" lon="1.96745">
        <ele>121.2</ele>
        <time>2022-03-29T09:15:32Z</time>
      </trkpt>
      <trkpt lat="48.70182" lon="1.96747">
        <ele>120.3</ele>
        <time>2022-03-29T09:15:40Z</time>
      </trkpt>
      <trkpt lat="48.70191" lon="1.96752">
        <ele>119.5</ele>
        <time>2022-03-29T09:15:48Z</time>
      </trkpt>
      <trkpt lat="48.702" lon="1.96756">
        <ele>118.6</ele>
        <time>2022-03-29T09:15:55Z</time>
      </trkpt>
      <trkpt lat="48.7021" lon="1.96757">
        <ele>117.4</ele>
        <time>2022-03-29T09:16:01Z</time>
      </trkpt>
      <trkpt lat="48.70219" lon="1.96753">
        <ele>116.4</ele>
        <time>2022-03-29T09:16:07Z</time>
      </trkpt>
      <trkpt lat="48.70228" lon="1.96751">
        <ele>115.8</ele>
        <time>2022-03-29T09:16:14Z</time>
      </trkpt>
      <trkpt lat="48.70239" lon="1.96748">
        <ele>115.5</ele>
        <time>2022-03-29T09:16:21Z</time>
      </trkpt>
      <trkpt lat="48.70248" lon="1.96746">
        <ele>115.3</ele>
        <time>2022-03-29T09:16:27Z</time>
      </trkpt>
      <trkpt lat="48.70258" lon="1.96745">
        <ele>115</ele>
        <time>2022-03-29T09:16:33Z</time>
      </trkpt>
      <trkpt lat="48.70268" lon="1.96742">
        <ele>114.8</ele>
        <time>2022-03-29T09:16:40Z</time>
      </trkpt>
      <trkpt lat="48.70276" lon="1.96735">
        <ele>114.6</ele>
        <time>2022-03-29T09:16:48Z</time>
      </trkpt>
      <trkpt lat="48.70285" lon="1.9673">
        <ele>114.8</ele>
        <time>2022-03-29T09:16:56Z</time>
      </trkpt>
      <trkpt lat="48.70293" lon="1.96721">
        <ele>115</ele>
        <time>2022-03-29T09:17:03Z</time>
      </trkpt>
      <trkpt lat="48.70299" lon="1.96731">
        <ele>114.9</ele>
        <time>2022-03-29T09:17:28Z</time>
      </trkpt>
      <trkpt lat="48.70301" lon="1.96746">
        <ele>114.9</ele>
        <time>2022-03-29T09:17:42Z</time>
      </trkpt>
      <trkpt lat="48.70299" lon="1.96759">
        <ele>114.4</ele>
        <time>2022-03-29T09:17:57Z</time>
      </trkpt>
      <trkpt lat="48.70303" lon="1.96772">
        <ele>114.1</ele>
        <time>2022-03-29T09:18:05Z</time>
      </trkpt>
      <trkpt lat="48.70311" lon="1.96782">
        <ele>115.2</ele>
        <time>2022-03-29T09:18:14Z</time>
      </trkpt>
      <trkpt lat="48.70318" lon="1.96791">
        <ele>117</ele>
        <time>2022-03-29T09:18:22Z</time>
      </trkpt>
      <trkpt lat="48.70323" lon="1.96804">
        <ele>118.2</ele>
        <time>2022-03-29T09:18:30Z</time>
      </trkpt>
      <trkpt lat="48.70323" lon="1.9682">
        <ele>118.4</ele>
        <time>2022-03-29T09:18:37Z</time>
      </trkpt>
      <trkpt lat="48.70324" lon="1.96833">
        <ele>118.8</ele>
        <time>2022-03-29T09:18:43Z</time>
      </trkpt>
      <trkpt lat="48.70324" lon="1.96849">
        <ele>118.7</ele>
        <time>2022-03-29T09:18:48Z</time>
      </trkpt>
      <trkpt lat="48.70325" lon="1.96864">
        <ele>119</ele>
        <time>2022-03-29T09:18:55Z</time>
      </trkpt>
      <trkpt lat="48.70326" lon="1.96878">
        <ele>118.9</ele>
        <time>2022-03-29T09:19:03Z</time>
      </trkpt>
      <trkpt lat="48.70334" lon="1.96868">
        <ele>121</ele>
        <time>2022-03-29T09:19:32Z</time>
      </trkpt>
      <trkpt lat="48.70336" lon="1.96854">
        <ele>121.7</ele>
        <time>2022-03-29T09:19:42Z</time>
      </trkpt>
      <trkpt lat="48.70339" lon="1.9684">
        <ele>123</ele>
        <time>2022-03-29T09:19:52Z</time>
      </trkpt>
      <trkpt lat="48.70345" lon="1.96829">
        <ele>125.1</ele>
        <time>2022-03-29T09:19:59Z</time>
      </trkpt>
      <trkpt lat="48.7035" lon="1.96818">
        <ele>127.2</ele>
        <time>2022-03-29T09:20:06Z</time>
      </trkpt>
      <trkpt lat="48.70355" lon="1.96806">
        <ele>128.9</ele>
        <time>2022-03-29T09:20:14Z</time>
      </trkpt>
      <trkpt lat="48.70361" lon="1.96795">
        <ele>130.7</ele>
        <time>2022-03-29T09:20:24Z</time>
      </trkpt>
      <trkpt lat="48.70366" lon="1.96782">
        <ele>131.9</ele>
        <time>2022-03-29T09:20:34Z</time>
      </trkpt>
      <trkpt lat="48.70372" lon="1.96772">
        <ele>133.9</ele>
        <time>2022-03-29T09:20:41Z</time>
      </trkpt>
      <trkpt lat="48.70375" lon="1.96758">
        <ele>134.8</ele>
        <time>2022-03-29T09:20:50Z</time>
      </trkpt>
      <trkpt lat="48.7038" lon="1.96746">
        <ele>136.6</ele>
        <time>2022-03-29T09:21:01Z</time>
      </trkpt>
      <trkpt lat="48.70387" lon="1.96735">
        <ele>138.7</ele>
        <time>2022-03-29T09:21:10Z</time>
      </trkpt>
      <trkpt lat="48.70394" lon="1.96726">
        <ele>141</ele>
        <time>2022-03-29T09:21:18Z</time>
      </trkpt>
      <trkpt lat="48.704" lon="1.96715">
        <ele>142.9</ele>
        <time>2022-03-29T09:21:26Z</time>
      </trkpt>
      <trkpt lat="48.70407" lon="1.96703">
        <ele>145</ele>
        <time>2022-03-29T09:21:34Z</time>
      </trkpt>
      <trkpt lat="48.70412" lon="1.96691">
        <ele>146.1</ele>
        <time>2022-03-29T09:21:41Z</time>
      </trkpt>
      <trkpt lat="48.70414" lon="1.96677">
        <ele>146.6</ele>
        <time>2022-03-29T09:21:48Z</time>
      </trkpt>
      <trkpt lat="48.70418" lon="1.96665">
        <ele>147.8</ele>
        <time>2022-03-29T09:21:57Z</time>
      </trkpt>
      <trkpt lat="48.7042" lon="1.96651">
        <ele>149</ele>
        <time>2022-03-29T09:22:05Z</time>
      </trkpt>
      <trkpt lat="48.70423" lon="1.96637">
        <ele>150.6</ele>
        <time>2022-03-29T09:22:13Z</time>
      </trkpt>
      <trkpt lat="48.70423" lon="1.96622">
        <ele>152.2</ele>
        <time>2022-03-29T09:22:22Z</time>
      </trkpt>
      <trkpt lat="48.70425" lon="1.96608">
        <ele>154.2</ele>
        <time>2022-03-29T09:22:30Z</time>
      </trkpt>
      <trkpt lat="48.70426" lon="1.96594">
        <ele>155.9</ele>
        <time>2022-03-29T09:22:38Z</time>
      </trkpt>
      <trkpt lat="48.70435" lon="1.966">
        <ele>158.2</ele>
        <time>2022-03-29T09:23:39Z</time>
      </trkpt>
      <trkpt lat="48.70437" lon="1.96614">
        <ele>158.3</ele>
        <time>2022-03-29T09:23:47Z</time>
      </trkpt>
      <trkpt lat="48.70444" lon="1.96624">
        <ele>159.8</ele>
        <time>2022-03-29T09:24:14Z</time>
      </trkpt>
      <trkpt lat="48.70444" lon="1.96637">
        <ele>159</ele>
        <time>2022-03-29T09:24:25Z</time>
      </trkpt>
      <trkpt lat="48.70444" lon="1.96652">
        <ele>158.9</ele>
        <time>2022-03-29T09:24:36Z</time>
      </trkpt>
      <trkpt lat="48.70447" lon="1.96665">
        <ele>159.6</ele>
        <time>2022-03-29T09:24:45Z</time>
      </trkpt>
      <trkpt lat="48.70448" lon="1.9668">
        <ele>159.9</ele>
        <time>2022-03-29T09:24:53Z</time>
      </trkpt>
      <trkpt lat="48.7045" lon="1.96693">
        <ele>160.2</ele>
        <time>2022-03-29T09:25:01Z</time>
      </trkpt>
      <trkpt lat="48.70449" lon="1.96707">
        <ele>160</ele>
        <time>2022-03-29T09:25:11Z</time>
      </trkpt>
      <trkpt lat="48.70455" lon="1.96719">
        <ele>161.3</ele>
        <time>2022-03-29T09:25:23Z</time>
      </trkpt>
      <trkpt lat="48.70453" lon="1.96732">
        <ele>161.1</ele>
        <time>2022-03-29T09:25:29Z</time>
      </trkpt>
      <trkpt lat="48.70453" lon="1.96747">
        <ele>161.5</ele>
        <time>2022-03-29T09:25:37Z</time>
      </trkpt>
      <trkpt lat="48.70456" lon="1.96762">
        <ele>162</ele>
        <time>2022-03-29T09:25:45Z</time>
      </trkpt>
      <trkpt lat="48.7045" lon="1.96773">
        <ele>161.1</ele>
        <time>2022-03-29T09:25:51Z</time>
      </trkpt>
      <trkpt lat="48.70454" lon="1.96786">
        <ele>161.8</ele>
        <time>2022-03-29T09:25:58Z</time>
      </trkpt>
      <trkpt lat="48.70448" lon="1.96797">
        <ele>160.6</ele>
        <time>2022-03-29T09:26:04Z</time>
      </trkpt>
      <trkpt lat="48.70446" lon="1.96812">
        <ele>160.1</ele>
        <time>2022-03-29T09:26:11Z</time>
      </trkpt>
      <trkpt lat="48.7045" lon="1.96824">
        <ele>160.4</ele>
        <time>2022-03-29T09:26:24Z</time>
      </trkpt>
      <trkpt lat="48.70458" lon="1.96829">
        <ele>162</ele>
        <time>2022-03-29T09:26:32Z</time>
      </trkpt>
      <trkpt lat="48.70463" lon="1.96841">
        <ele>162.9</ele>
        <time>2022-03-29T09:26:41Z</time>
      </trkpt>
      <trkpt lat="48.70469" lon="1.96853">
        <ele>163.6</ele>
        <time>2022-03-29T09:26:49Z</time>
      </trkpt>
      <trkpt lat="48.70476" lon="1.96862">
        <ele>164.3</ele>
        <time>2022-03-29T09:26:56Z</time>
      </trkpt>
      <trkpt lat="48.70479" lon="1.96876">
        <ele>164.9</ele>
        <time>2022-03-29T09:27:07Z</time>
      </trkpt>
      <trkpt lat="48.70478" lon="1.9689">
        <ele>165.2</ele>
        <time>2022-03-29T09:27:15Z</time>
      </trkpt>
      <trkpt lat="48.70479" lon="1.96905">
        <ele>165.2</ele>
        <time>2022-03-29T09:27:23Z</time>
      </trkpt>
      <trkpt lat="48.70478" lon="1.9692">
        <ele>165.3</ele>
        <time>2022-03-29T09:27:31Z</time>
      </trkpt>
      <trkpt lat="48.70475" lon="1.96935">
        <ele>165.6</ele>
        <time>2022-03-29T09:27:39Z</time>
      </trkpt>
      <trkpt lat="48.70477" lon="1.96949">
        <ele>165.8</ele>
        <time>2022-03-29T09:27:45Z</time>
      </trkpt>
      <trkpt lat="48.70476" lon="1.96962">
        <ele>165.9</ele>
        <time>2022-03-29T09:27:54Z</time>
      </trkpt>
      <trkpt lat="48.70475" lon="1.96978">
        <ele>165.7</ele>
        <time>2022-03-29T09:28:02Z</time>
      </trkpt>
      <trkpt lat="48.70472" lon="1.96991">
        <ele>165.3</ele>
        <time>2022-03-29T09:28:08Z</time>
      </trkpt>
      <trkpt lat="48.70472" lon="1.97006">
        <ele>165</ele>
        <time>2022-03-29T09:28:15Z</time>
      </trkpt>
      <trkpt lat="48.70468" lon="1.97019">
        <ele>165</ele>
        <time>2022-03-29T09:28:20Z</time>
      </trkpt>
      <trkpt lat="48.70463" lon="1.97032">
        <ele>165</ele>
        <time>2022-03-29T09:28:27Z</time>
      </trkpt>
      <trkpt lat="48.70461" lon="1.97045">
        <ele>165</ele>
        <time>2022-03-29T09:28:33Z</time>
      </trkpt>
      <trkpt lat="48.70461" lon="1.97059">
        <ele>165</ele>
        <time>2022-03-29T09:28:39Z</time>
      </trkpt>
      <trkpt lat="48.70462" lon="1.97073">
        <ele>165</ele>
        <time>2022-03-29T09:28:47Z</time>
      </trkpt>
      <trkpt lat="48.70458" lon="1.97086">
        <ele>165</ele>
        <time>2022-03-29T09:28:55Z</time>
      </trkpt>
      <trkpt lat="48.70459" lon="1.971">
        <ele>165</ele>
        <time>2022-03-29T09:29:01Z</time>
      </trkpt>
      <trkpt lat="48.70457" lon="1.97115">
        <ele>164.9</ele>
        <time>2022-03-29T09:29:07Z</time>
      </trkpt>
      <trkpt lat="48.70454" lon="1.97129">
        <ele>164.6</ele>
        <time>2022-03-29T09:29:15Z</time>
      </trkpt>
      <trkpt lat="48.70456" lon="1.97143">
        <ele>164.4</ele>
        <time>2022-03-29T09:29:21Z</time>
      </trkpt>
      <trkpt lat="48.70454" lon="1.97156">
        <ele>164.3</ele>
        <time>2022-03-29T09:29:28Z</time>
      </trkpt>
      <trkpt lat="48.70452" lon="1.97171">
        <ele>164.2</ele>
        <time>2022-03-29T09:29:36Z</time>
      </trkpt>
      <trkpt lat="48.70454" lon="1.97185">
        <ele>164.1</ele>
        <time>2022-03-29T09:29:42Z</time>
      </trkpt>
      <trkpt lat="48.70458" lon="1.972">
        <ele>163.9</ele>
        <time>2022-03-29T09:29:49Z</time>
      </trkpt>
      <trkpt lat="48.70461" lon="1.97214">
        <ele>163.7</ele>
        <time>2022-03-29T09:29:55Z</time>
      </trkpt>
      <trkpt lat="48.70456" lon="1.97226">
        <ele>163.4</ele>
        <time>2022-03-29T09:30:11Z</time>
      </trkpt>
      <trkpt lat="48.70448" lon="1.97235">
        <ele>163.1</ele>
        <time>2022-03-29T09:30:19Z</time>
      </trkpt>
      <trkpt lat="48.7044" lon="1.97242">
        <ele>162.7</ele>
        <time>2022-03-29T09:30:26Z</time>
      </trkpt>
      <trkpt lat="48.70432" lon="1.97249">
        <ele>162.2</ele>
        <time>2022-03-29T09:30:32Z</time>
      </trkpt>
      <trkpt lat="48.70423" lon="1.97253">
        <ele>161.4</ele>
        <time>2022-03-29T09:30:39Z</time>
      </trkpt>
      <trkpt lat="48.70414" lon="1.97256">
        <ele>160.6</ele>
        <time>2022-03-29T09:30:45Z</time>
      </trkpt>
      <trkpt lat="48.70406" lon="1.97264">
        <ele>159.5</ele>
        <time>2022-03-29T09:30:51Z</time>
      </trkpt>
      <trkpt lat="48.704" lon="1.97275">
        <ele>158.5</ele>
        <time>2022-03-29T09:31:00Z</time>
      </trkpt>
      <trkpt lat="48.70394" lon="1.97287">
        <ele>158.1</ele>
        <time>2022-03-29T09:31:07Z</time>
      </trkpt>
      <trkpt lat="48.70393" lon="1.97302">
        <ele>158.5</ele>
        <time>2022-03-29T09:31:14Z</time>
      </trkpt>
      <trkpt lat="48.70391" lon="1.97316">
        <ele>158.6</ele>
        <time>2022-03-29T09:31:21Z</time>
      </trkpt>
      <trkpt lat="48.70386" lon="1.97329">
        <ele>158</ele>
        <time>2022-03-29T09:31:28Z</time>
      </trkpt>
      <trkpt lat="48.70384" lon="1.97343">
        <ele>157.6</ele>
        <time>2022-03-29T09:31:34Z</time>
      </trkpt>
      <trkpt lat="48.70383" lon="1.97358">
        <ele>157.5</ele>
        <time>2022-03-29T09:31:41Z</time>
      </trkpt>
      <trkpt lat="48.70381" lon="1.97374">
        <ele>157.6</ele>
        <time>2022-03-29T09:31:48Z</time>
      </trkpt>
      <trkpt lat="48.70378" lon="1.97387">
        <ele>157.6</ele>
        <time>2022-03-29T09:31:56Z</time>
      </trkpt>
      <trkpt lat="48.70374" lon="1.97401">
        <ele>157.3</ele>
        <time>2022-03-29T09:32:04Z</time>
      </trkpt>
      <trkpt lat="48.70372" lon="1.97416">
        <ele>157.4</ele>
        <time>2022-03-29T09:32:11Z</time>
      </trkpt>
      <trkpt lat="48.70369" lon="1.97429">
        <ele>157.5</ele>
        <time>2022-03-29T09:32:18Z</time>
      </trkpt>
      <trkpt lat="48.70368" lon="1.97443">
        <ele>158.1</ele>
        <time>2022-03-29T09:32:24Z</time>
      </trkpt>
      <trkpt lat="48.70366" lon="1.97457">
        <ele>158.2</ele>
        <time>2022-03-29T09:32:31Z</time>
      </trkpt>
      <trkpt lat="48.70363" lon="1.97471">
        <ele>158.3</ele>
        <time>2022-03-29T09:32:38Z</time>
      </trkpt>
      <trkpt lat="48.7036" lon="1.97485">
        <ele>157.9</ele>
        <time>2022-03-29T09:32:46Z</time>
      </trkpt>
      <trkpt lat="48.70359" lon="1.975">
        <ele>158.1</ele>
        <time>2022-03-29T09:32:54Z</time>
      </trkpt>
      <trkpt lat="48.70361" lon="1.97514">
        <ele>159.4</ele>
        <time>2022-03-29T09:33:01Z</time>
      </trkpt>
      <trkpt lat="48.70363" lon="1.97528">
        <ele>160.1</ele>
        <time>2022-03-29T09:33:08Z</time>
      </trkpt>
      <trkpt lat="48.70357" lon="1.97541">
        <ele>159.5</ele>
        <time>2022-03-29T09:33:17Z</time>
      </trkpt>
      <trkpt lat="48.70353" lon="1.97553">
        <ele>158.9</ele>
        <time>2022-03-29T09:33:26Z</time>
      </trkpt>
      <trkpt lat="48.70348" lon="1.97566">
        <ele>158.2</ele>
        <time>2022-03-29T09:33:34Z</time>
      </trkpt>
      <trkpt lat="48.70341" lon="1.97577">
        <ele>157.6</ele>
        <time>2022-03-29T09:33:42Z</time>
      </trkpt>
      <trkpt lat="48.70337" lon="1.9759">
        <ele>157.9</ele>
        <time>2022-03-29T09:33:49Z</time>
      </trkpt>
      <trkpt lat="48.70334" lon="1.97603">
        <ele>158.4</ele>
        <time>2022-03-29T09:33:56Z</time>
      </trkpt>
      <trkpt lat="48.70335" lon="1.97616">
        <ele>159.3</ele>
        <time>2022-03-29T09:34:02Z</time>
      </trkpt>
      <trkpt lat="48.70334" lon="1.97632">
        <ele>159.8</ele>
        <time>2022-03-29T09:34:09Z</time>
      </trkpt>
      <trkpt lat="48.70332" lon="1.97647">
        <ele>159.6</ele>
        <time>2022-03-29T09:34:16Z</time>
      </trkpt>
      <trkpt lat="48.70326" lon="1.97658">
        <ele>157.6</ele>
        <time>2022-03-29T09:34:25Z</time>
      </trkpt>
      <trkpt lat="48.70325" lon="1.97672">
        <ele>156.9</ele>
        <time>2022-03-29T09:34:32Z</time>
      </trkpt>
      <trkpt lat="48.70328" lon="1.97685">
        <ele>157.6</ele>
        <time>2022-03-29T09:34:37Z</time>
      </trkpt>
      <trkpt lat="48.70332" lon="1.97698">
        <ele>158.4</ele>
        <time>2022-03-29T09:34:43Z</time>
      </trkpt>
      <trkpt lat="48.70336" lon="1.97711">
        <ele>158.1</ele>
        <time>2022-03-29T09:34:49Z</time>
      </trkpt>
      <trkpt lat="48.70343" lon="1.9772">
        <ele>158.2</ele>
        <time>2022-03-29T09:34:56Z</time>
      </trkpt>
      <trkpt lat="48.70351" lon="1.9773">
        <ele>158.3</ele>
        <time>2022-03-29T09:35:04Z</time>
      </trkpt>
      <trkpt lat="48.70361" lon="1.97736">
        <ele>158.9</ele>
        <time>2022-03-29T09:35:11Z</time>
      </trkpt>
      <trkpt lat="48.70369" lon="1.97741">
        <ele>158.9</ele>
        <time>2022-03-29T09:35:18Z</time>
      </trkpt>
      <trkpt lat="48.70377" lon="1.97751">
        <ele>158.5</ele>
        <time>2022-03-29T09:35:25Z</time>
      </trkpt>
      <trkpt lat="48.70384" lon="1.9776">
        <ele>158.4</ele>
        <time>2022-03-29T09:35:33Z</time>
      </trkpt>
      <trkpt lat="48.70393" lon="1.97766">
        <ele>158.4</ele>
        <time>2022-03-29T09:35:38Z</time>
      </trkpt>
      <trkpt lat="48.70401" lon="1.97772">
        <ele>158.2</ele>
        <time>2022-03-29T09:35:44Z</time>
      </trkpt>
      <trkpt lat="48.7041" lon="1.97775">
        <ele>158.1</ele>
        <time>2022-03-29T09:35:50Z</time>
      </trkpt>
      <trkpt lat="48.7042" lon="1.97778">
        <ele>158</ele>
        <time>2022-03-29T09:35:56Z</time>
      </trkpt>
      <trkpt lat="48.70429" lon="1.97784">
        <ele>157.8</ele>
        <time>2022-03-29T09:36:02Z</time>
      </trkpt>
      <trkpt lat="48.70439" lon="1.97789">
        <ele>157.6</ele>
        <time>2022-03-29T09:36:08Z</time>
      </trkpt>
      <trkpt lat="48.70448" lon="1.97796">
        <ele>157.3</ele>
        <time>2022-03-29T09:36:14Z</time>
      </trkpt>
      <trkpt lat="48.70457" lon="1.97802">
        <ele>157.1</ele>
        <time>2022-03-29T09:36:20Z</time>
      </trkpt>
      <trkpt lat="48.70462" lon="1.97813">
        <ele>156.7</ele>
        <time>2022-03-29T09:36:27Z</time>
      </trkpt>
      <trkpt lat="48.7047" lon="1.97822">
        <ele>156.4</ele>
        <time>2022-03-29T09:36:33Z</time>
      </trkpt>
      <trkpt lat="48.70477" lon="1.97832">
        <ele>156</ele>
        <time>2022-03-29T09:36:40Z</time>
      </trkpt>
      <trkpt lat="48.70485" lon="1.97842">
        <ele>155.6</ele>
        <time>2022-03-29T09:36:46Z</time>
      </trkpt>
      <trkpt lat="48.70489" lon="1.97854">
        <ele>154.8</ele>
        <time>2022-03-29T09:36:54Z</time>
      </trkpt>
      <trkpt lat="48.70496" lon="1.97865">
        <ele>154</ele>
        <time>2022-03-29T09:37:01Z</time>
      </trkpt>
      <trkpt lat="48.70501" lon="1.97877">
        <ele>153.4</ele>
        <time>2022-03-29T09:37:08Z</time>
      </trkpt>
      <trkpt lat="48.70511" lon="1.97882">
        <ele>153.3</ele>
        <time>2022-03-29T09:37:15Z</time>
      </trkpt>
      <trkpt lat="48.7052" lon="1.97883">
        <ele>153.4</ele>
        <time>2022-03-29T09:37:21Z</time>
      </trkpt>
      <trkpt lat="48.7053" lon="1.97889">
        <ele>153.1</ele>
        <time>2022-03-29T09:37:29Z</time>
      </trkpt>
      <trkpt lat="48.70536" lon="1.97898">
        <ele>152.7</ele>
        <time>2022-03-29T09:37:37Z</time>
      </trkpt>
      <trkpt lat="48.70545" lon="1.97904">
        <ele>152.8</ele>
        <time>2022-03-29T09:37:45Z</time>
      </trkpt>
      <trkpt lat="48.70552" lon="1.97913">
        <ele>152.9</ele>
        <time>2022-03-29T09:38:10Z</time>
      </trkpt>
      <trkpt lat="48.70563" lon="1.97914">
        <ele>153.3</ele>
        <time>2022-03-29T09:38:17Z</time>
      </trkpt>
      <trkpt lat="48.70572" lon="1.97921">
        <ele>153.5</ele>
        <time>2022-03-29T09:38:24Z</time>
      </trkpt>
      <trkpt lat="48.70576" lon="1.97935">
        <ele>153.6</ele>
        <time>2022-03-29T09:38:33Z</time>
      </trkpt>
      <trkpt lat="48.70582" lon="1.97948">
        <ele>153.9</ele>
        <time>2022-03-29T09:38:42Z</time>
      </trkpt>
      <trkpt lat="48.70587" lon="1.9796">
        <ele>154.1</ele>
        <time>2022-03-29T09:38:53Z</time>
      </trkpt>
      <trkpt lat="48.70595" lon="1.97967">
        <ele>154.4</ele>
        <time>2022-03-29T09:39:00Z</time>
      </trkpt>
      <trkpt lat="48.70604" lon="1.97971">
        <ele>154.7</ele>
        <time>2022-03-29T09:39:06Z</time>
      </trkpt>
      <trkpt lat="48.70613" lon="1.97977">
        <ele>155</ele>
        <time>2022-03-29T09:39:14Z</time>
      </trkpt>
      <trkpt lat="48.70613" lon="1.97991">
        <ele>155</ele>
        <time>2022-03-29T09:39:40Z</time>
      </trkpt>
      <trkpt lat="48.70615" lon="1.98006">
        <ele>154.8</ele>
        <time>2022-03-29T09:39:50Z</time>
      </trkpt>
      <trkpt lat="48.70615" lon="1.9802">
        <ele>154.4</ele>
        <time>2022-03-29T09:39:58Z</time>
      </trkpt>
      <trkpt lat="48.70612" lon="1.98033">
        <ele>154</ele>
        <time>2022-03-29T09:40:07Z</time>
      </trkpt>
      <trkpt lat="48.7061" lon="1.98048">
        <ele>154</ele>
        <time>2022-03-29T09:40:14Z</time>
      </trkpt>
      <trkpt lat="48.7061" lon="1.98063">
        <ele>153.7</ele>
        <time>2022-03-29T09:40:21Z</time>
      </trkpt>
      <trkpt lat="48.7061" lon="1.98078">
        <ele>153.1</ele>
        <time>2022-03-29T09:40:28Z</time>
      </trkpt>
      <trkpt lat="48.70608" lon="1.98092">
        <ele>152.6</ele>
        <time>2022-03-29T09:40:37Z</time>
      </trkpt>
      <trkpt lat="48.70611" lon="1.98106">
        <ele>152.2</ele>
        <time>2022-03-29T09:40:44Z</time>
      </trkpt>
      <trkpt lat="48.70611" lon="1.98122">
        <ele>151.6</ele>
        <time>2022-03-29T09:40:52Z</time>
      </trkpt>
      <trkpt lat="48.70608" lon="1.98135">
        <ele>151.1</ele>
        <time>2022-03-29T09:41:02Z</time>
      </trkpt>
      <trkpt lat="48.70599" lon="1.98141">
        <ele>150.9</ele>
        <time>2022-03-29T09:41:11Z</time>
      </trkpt>
      <trkpt lat="48.70591" lon="1.9815">
        <ele>150.3</ele>
        <time>2022-03-29T09:41:19Z</time>
      </trkpt>
      <trkpt lat="48.70589" lon="1.98165">
        <ele>149.3</ele>
        <time>2022-03-29T09:41:25Z</time>
      </trkpt>
      <trkpt lat="48.7059" lon="1.98179">
        <ele>148.4</ele>
        <time>2022-03-29T09:41:31Z</time>
      </trkpt>
      <trkpt lat="48.70589" lon="1.98193">
        <ele>147.5</ele>
        <time>2022-03-29T09:41:37Z</time>
      </trkpt>
      <trkpt lat="48.70592" lon="1.98206">
        <ele>146.7</ele>
        <time>2022-03-29T09:41:44Z</time>
      </trkpt>
      <trkpt lat="48.70597" lon="1.98217">
        <ele>146.4</ele>
        <time>2022-03-29T09:41:50Z</time>
      </trkpt>
      <trkpt lat="48.70599" lon="1.98232">
        <ele>145.3</ele>
        <time>2022-03-29T09:41:56Z</time>
      </trkpt>
      <trkpt lat="48.70598" lon="1.98247">
        <ele>143.8</ele>
        <time>2022-03-29T09:42:03Z</time>
      </trkpt>
      <trkpt lat="48.70602" lon="1.9826">
        <ele>143.5</ele>
        <time>2022-03-29T09:42:10Z</time>
      </trkpt>
      <trkpt lat="48.70602" lon="1.98275">
        <ele>142.3</ele>
        <time>2022-03-29T09:42:17Z</time>
      </trkpt>
      <trkpt lat="48.706" lon="1.98289">
        <ele>140.7</ele>
        <time>2022-03-29T09:42:23Z</time>
      </trkpt>
      <trkpt lat="48.70604" lon="1.98302">
        <ele>140.5</ele>
        <time>2022-03-29T09:42:29Z</time>
      </trkpt>
      <trkpt lat="48.70608" lon="1.98315">
        <ele>140.1</ele>
        <time>2022-03-29T09:42:35Z</time>
      </trkpt>
      <trkpt lat="48.70611" lon="1.9833">
        <ele>139.3</ele>
        <time>2022-03-29T09:42:42Z</time>
      </trkpt>
      <trkpt lat="48.70612" lon="1.98345">
        <ele>137.9</ele>
        <time>2022-03-29T09:42:48Z</time>
      </trkpt>
      <trkpt lat="48.70609" lon="1.98358">
        <ele>135.7</ele>
        <time>2022-03-29T09:42:53Z</time>
      </trkpt>
      <trkpt lat="48.70605" lon="1.98372">
        <ele>132.8</ele>
        <time>2022-03-29T09:43:02Z</time>
      </trkpt>
      <trkpt lat="48.70608" lon="1.98388">
        <ele>131.5</ele>
        <time>2022-03-29T09:43:14Z</time>
      </trkpt>
      <trkpt lat="48.70608" lon="1.98403">
        <ele>129.4</ele>
        <time>2022-03-29T09:43:20Z</time>
      </trkpt>
      <trkpt lat="48.70598" lon="1.98406">
        <ele>126.8</ele>
        <time>2022-03-29T09:43:25Z</time>
      </trkpt>
      <trkpt lat="48.70589" lon="1.9841">
        <ele>124.2</ele>
        <time>2022-03-29T09:43:31Z</time>
      </trkpt>
      <trkpt lat="48.70586" lon="1.98425">
        <ele>121.7</ele>
        <time>2022-03-29T09:43:38Z</time>
      </trkpt>
      <trkpt lat="48.70588" lon="1.98439">
        <ele>120.6</ele>
        <time>2022-03-29T09:43:49Z</time>
      </trkpt>
      <trkpt lat="48.70587" lon="1.98452">
        <ele>119</ele>
        <time>2022-03-29T09:43:59Z</time>
      </trkpt>
      <trkpt lat="48.70588" lon="1.98467">
        <ele>117.9</ele>
        <time>2022-03-29T09:44:14Z</time>
      </trkpt>
      <trkpt lat="48.70591" lon="1.98481">
        <ele>116.9</ele>
        <time>2022-03-29T09:44:23Z</time>
      </trkpt>
      <trkpt lat="48.70596" lon="1.98493">
        <ele>116.5</ele>
        <time>2022-03-29T09:44:33Z</time>
      </trkpt>
      <trkpt lat="48.70603" lon="1.98504">
        <ele>116.6</ele>
        <time>2022-03-29T09:44:40Z</time>
      </trkpt>
      <trkpt lat="48.70611" lon="1.98512">
        <ele>117.2</ele>
        <time>2022-03-29T09:44:49Z</time>
      </trkpt>
      <trkpt lat="48.70609" lon="1.98526">
        <ele>115.9</ele>
        <time>2022-03-29T09:45:01Z</time>
      </trkpt>
      <trkpt lat="48.70617" lon="1.98533">
        <ele>116.3</ele>
        <time>2022-03-29T09:45:09Z</time>
      </trkpt>
      <trkpt lat="48.70615" lon="1.98547">
        <ele>115.1</ele>
        <time>2022-03-29T09:45:16Z</time>
      </trkpt>
      <trkpt lat="48.70617" lon="1.98561">
        <ele>114.1</ele>
        <time>2022-03-29T09:45:22Z</time>
      </trkpt>
      <trkpt lat="48.70621" lon="1.98574">
        <ele>113.4</ele>
        <time>2022-03-29T09:45:30Z</time>
      </trkpt>
      <trkpt lat="48.70631" lon="1.98578">
        <ele>114.3</ele>
        <time>2022-03-29T09:45:42Z</time>
      </trkpt>
      <trkpt lat="48.7064" lon="1.98577">
        <ele>115.5</ele>
        <time>2022-03-29T09:45:54Z</time>
      </trkpt>
      <trkpt lat="48.70644" lon="1.9859">
        <ele>114.6</ele>
        <time>2022-03-29T09:46:03Z</time>
      </trkpt>
      <trkpt lat="48.70638" lon="1.98601">
        <ele>113</ele>
        <time>2022-03-29T09:46:24Z</time>
      </trkpt>
      <trkpt lat="48.70642" lon="1.98613">
        <ele>112.1</ele>
        <time>2022-03-29T09:46:41Z</time>
      </trkpt>
    </trkseg>
  </trk>
</gpx>